M I D A S
Marine Information and Data Acquisition System
Tripno 876 of the Zeeleeuw from 2005-04-04 09:42:55 to 2005-04-04 11:08:42
Back to CruiseResearch ActivitiesStationsMapUnderway DataData graphs

EquipmentUnitsComment
TimeDGPSUTC
LatitudeDGPSDM.mWGS84
LongitudeDGPSDM.mWGS84
TemperatureSBE03/SBE38deg celciusITS90
ConductivitySBE21S/mITS90
SalinitySBE21 Practical Salinity Units
ChlorophylAChelsea fluorimeterg/lCalibrated in Aceton
Missing or incorrect values are displayed as -999
Sea surface data collected by the RV Zeeleeuw from 2005-04-04 09:26:23 to 2005-04-04 11:18:58
                                                                                    Next 1000 lines
Time Latitude Longitude Temperature Conductivity Salinity ChlorophylA
2005-04-04 09:26:33 51°13.598 2°56.085 8.4702 2.998015 27.912034 4.409999
2005-04-04 09:26:38 51°13.6 2°56.08 8.4836 3.008752 28.024387 4.207742
2005-04-04 09:26:44 51°13.602 2°56.073 8.4947 3.016647 28.104928 4.207742
2005-04-04 09:26:49 51°13.604 2°56.066 8.4955 3.016647 28.104928 4.207742
2005-04-04 09:26:54 51°13.606 2°56.059 8.4931 3.011805 28.049844 4.34258
2005-04-04 09:26:59 51°13.608 2°56.052 8.4902 3.00612 27.986138 4.34258
2005-04-04 09:27:04 51°13.61 2°56.044 8.4899 3.006752 27.979475 4.578546
2005-04-04 09:27:08 51°13.612 2°56.038 8.4822 2.98833 27.772693 6.735947
2005-04-04 09:27:14 51°13.614 2°56.031 8.4806 2.974751 27.619185 8.151742
2005-04-04 09:27:18 51°13.615 2°56.027 8.4844 2.974751 27.619185 8.151742
2005-04-04 09:27:24 51°13.617 2°56.022 8.4862 2.966857 27.52798 9.028187
2005-04-04 09:27:29 51°13.618 2°56.019 8.487 2.96633 27.518074 9.264153
2005-04-04 09:27:34 51°13.619 2°56.017 8.4994 2.966436 27.519151 9.365281
2005-04-04 09:27:38 51°13.619 2°56.016 8.5048 2.953699 27.390746 9.129315
2005-04-04 09:27:42 51°13.62 2°56.015 8.5081 2.953699 27.390746 9.129315
2005-04-04 09:27:48 51°13.619 2°56.016 8.5139 2.970225 27.562468 8.792221
2005-04-04 09:27:53 51°13.619 2°56.018 8.5171 2.970014 27.560959 8.320289
2005-04-04 09:27:58 51°13.618 2°56.02 8.5151 2.965488 27.513325 8.219161
2005-04-04 09:28:04 51°13.616 2°56.024 8.5168 2.965699 27.51419 7.848358
2005-04-04 09:28:08 51°13.615 2°56.026 8.5157 2.94791 27.327682 7.578683
2005-04-04 09:28:14 51°13.613 2°56.03 8.5503 2.952331 27.367121 7.410136
2005-04-04 09:28:18 51°13.611 2°56.033 8.6062 2.952331 27.367121 7.410136
2005-04-04 09:28:24 51°13.608 2°56.038 8.6429 2.95391 27.378134 7.342717
2005-04-04 09:28:28 51°13.606 2°56.041 8.6525 2.959594 27.432404 7.275298
2005-04-04 09:28:34 51°13.603 2°56.046 8.6662 2.960436 27.43973 7.106751
2005-04-04 09:28:38 51°13.601 2°56.05 8.6695 2.961067 27.444903 7.005623
2005-04-04 09:28:43 51°13.598 2°56.055 8.6798 2.959488 27.42169 7.039332
2005-04-04 09:28:48 51°13.595 2°56.06 8.6985 2.959488 27.42169 7.039332
2005-04-04 09:28:53 51°13.592 2°56.066 8.7163 2.939068 27.190751 6.971913
2005-04-04 09:28:58 51°13.59 2°56.07 8.7257 2.915702 26.917172 7.039332
2005-04-04 09:29:03 51°13.586 2°56.076 8.7176 2.902862 26.771486 6.904494
2005-04-04 09:29:08 51°13.584 2°56.081 8.7046 2.894968 26.675669 6.870785
2005-04-04 09:29:13 51°13.58 2°56.086 8.692 2.890443 26.618523 6.870785
2005-04-04 09:29:18 51°13.578 2°56.091 8.6864 2.890443 26.618523 6.870785
2005-04-04 09:29:23 51°13.574 2°56.096 8.673 2.883918 26.538675 6.803366
2005-04-04 09:29:28 51°13.572 2°56.101 8.6769 2.875077 26.437931 6.904494
2005-04-04 09:29:33 51°13.569 2°56.106 8.6762 2.867079 26.34461 6.837076
2005-04-04 09:29:38 51°13.567 2°56.11 8.6786 2.869078 26.363631 6.870785
2005-04-04 09:29:43 51°13.564 2°56.116 8.6865 2.875288 26.430212 6.904494
2005-04-04 09:29:48 51°13.562 2°56.121 8.6923 2.875288 26.430212 6.904494
2005-04-04 09:29:53 51°13.56 2°56.126 8.6988 2.883286 26.518054 6.769657
2005-04-04 09:29:58 51°13.558 2°56.132 8.6919 2.889074 26.584175 6.668529
2005-04-04 09:30:01 51°13.556 2°56.137 8.6921 2.8916 26.614138 6.668529
2005-04-04 09:30:08 51°13.553 2°56.146 8.6886 2.892021 26.61903 6.5674
2005-04-04 09:30:12 51°13.551 2°56.151 8.6766 2.892232 26.618684 6.432563
2005-04-04 09:30:18 51°13.549 2°56.159 8.6694 2.892232 26.618684 6.432563
2005-04-04 09:30:23 51°13.547 2°56.166 8.6671 2.891706 26.610244 6.061759
2005-04-04 09:30:28 51°13.545 2°56.174 8.6673 2.890337 26.592028 6.095469
2005-04-04 09:30:33 51°13.544 2°56.181 8.6696 2.890232 26.590341 5.926922
2005-04-04 09:30:38 51°13.544 2°56.19 8.6892 2.890864 26.597365 5.926922
2005-04-04 09:30:43 51°13.544 2°56.197 8.726 2.893389 26.627327 5.926922
2005-04-04 09:30:48 51°13.545 2°56.204 8.77 2.893389 26.627327 5.926922
2005-04-04 09:30:53 51°13.545 2°56.21 8.8505 2.896231 26.661128 5.792084
2005-04-04 09:30:58 51°13.546 2°56.214 8.8995 2.898652 26.69005 5.724665
2005-04-04 09:31:03 51°13.546 2°56.217 8.9584 2.899704 26.703224 5.825794
2005-04-04 09:31:08 51°13.546 2°56.218 9.0069 2.89802 26.686128 5.724665
2005-04-04 09:31:12 51°13.546 2°56.219 9.0654 2.886759 26.560072 5.690956
2005-04-04 09:31:18 51°13.545 2°56.218 9.1046 2.886759 26.560072 5.690956
2005-04-04 09:31:23 51°13.545 2°56.216 9.17 2.868552 26.348487 5.792084
2005-04-04 09:31:28 51°13.544 2°56.214 9.1899 2.832035 25.939923 5.657247
2005-04-04 09:31:33 51°13.543 2°56.211 9.183 2.793521 25.509028 5.690956
2005-04-04 09:31:38 51°13.543 2°56.209 9.127 2.760376 25.135843 5.724665
2005-04-04 09:31:44 51°13.542 2°56.208 9.0792 2.729233 24.775802 5.859503
2005-04-04 09:31:48 51°13.542 2°56.209 9.0178 2.729233 24.775802 5.859503
2005-04-04 09:31:54 51°13.544 2°56.211 8.9756 2.696092 24.402264 5.724665
2005-04-04 09:31:58 51°13.545 2°56.214 8.9546 2.665794 24.062655 5.724665
2005-04-04 09:32:04 51°13.546 2°56.216 8.9232 2.643809 23.809558 5.758375
2005-04-04 09:32:08 51°13.547 2°56.217 8.9254 2.651277 23.876368 5.724665
2005-04-04 09:32:14 51°13.548 2°56.218 8.9243 2.67442 24.123304 5.758375
2005-04-04 09:32:19 51°13.548 2°56.219 8.9044 2.67442 24.123304 5.758375
2005-04-04 09:32:24 51°13.548 2°56.218 8.9092 2.704403 24.459645 5.859503
2005-04-04 09:32:29 51°13.547 2°56.217 8.9062 2.733546 24.777125 5.825794
2005-04-04 09:32:34 51°13.546 2°56.217 8.9044 2.754378 25.009772 5.825794
2005-04-04 09:32:38 51°13.547 2°56.217 8.879 2.772055 25.211502 5.792084
2005-04-04 09:32:44 51°13.548 2°56.218 8.847 2.780368 25.304674 5.825794
2005-04-04 09:32:49 51°13.549 2°56.219 8.8408 2.780368 25.304674 5.825794
2005-04-04 09:32:54 51°13.55 2°56.219 8.807 2.785944 25.371111 5.825794
2005-04-04 09:32:58 51°13.551 2°56.22 8.7929 2.787944 25.397029 5.825794
2005-04-04 09:33:04 51°13.55 2°56.22 8.7884 2.79068 25.425645 5.792084
2005-04-04 09:33:08 51°13.549 2°56.22 8.7797 2.792047 25.444664 5.825794
2005-04-04 09:33:14 51°13.548 2°56.219 8.7729 2.80741 25.613094 5.792084
2005-04-04 09:33:19 51°13.545 2°56.219 8.7666 2.80741 25.613094 5.792084
2005-04-04 09:33:24 51°13.543 2°56.219 8.7319 2.819933 25.754444 5.792084
2005-04-04 09:33:28 51°13.542 2°56.219 8.7034 2.833929 25.915089 5.792084
2005-04-04 09:33:34 51°13.541 2°56.218 8.6764 2.842768 26.019238 5.825794
2005-04-04 09:33:39 51°13.541 2°56.219 8.6472 2.849293 26.094728 5.825794
2005-04-04 09:33:44 51°13.543 2°56.219 8.6369 2.853923 26.149955 5.960631
2005-04-04 09:33:48 51°13.544 2°56.219 8.6324 2.853923 26.149955 5.960631
2005-04-04 09:33:54 51°13.546 2°56.218 8.6178 2.856449 26.181536 5.825794
2005-04-04 09:33:58 51°13.546 2°56.218 8.6157 2.864658 26.277275 5.926922
2005-04-04 09:34:04 51°13.546 2°56.219 8.6271 2.881391 26.468025 5.893212
2005-04-04 09:34:08 51°13.546 2°56.22 8.6403 2.897283 26.651311 5.859503
2005-04-04 09:34:14 51°13.545 2°56.22 8.6401 2.909913 26.801899 5.893212
2005-04-04 09:34:18 51°13.544 2°56.222 8.6458 2.909913 26.801899 5.893212
2005-04-04 09:34:24 51°13.542 2°56.224 8.653 2.919491 26.914874 5.960631
2005-04-04 09:34:28 51°13.54 2°56.226 8.6405 2.923701 26.969632 5.994341
2005-04-04 09:34:34 51°13.537 2°56.228 8.6421 2.925911 26.997158 5.960631
2005-04-04 09:34:39 51°13.535 2°56.231 8.6245 2.922754 26.962513 5.825794
2005-04-04 09:34:44 51°13.532 2°56.233 8.6157 2.922754 26.962513 5.825794
2005-04-04 09:34:49 51°13.53 2°56.235 8.5994 2.917596 26.905657 5.960631
2005-04-04 09:34:54 51°13.528 2°56.237 8.6002 2.915912 26.886023 6.02805
2005-04-04 09:34:58 51°13.527 2°56.238 8.6016 2.913807 26.860862 5.825794
2005-04-04 09:35:04 51°13.527 2°56.238 8.5967 2.915912 26.882887 5.893212
2005-04-04 09:35:08 51°13.528 2°56.237 8.6052 2.919175 26.917315 5.926922
2005-04-04 09:35:14 51°13.529 2°56.236 8.6482 2.924859 26.983929 5.893212
2005-04-04 09:35:19 51°13.53 2°56.234 8.717 2.924859 26.983929 5.893212
2005-04-04 09:35:24 51°13.532 2°56.231 8.8103 2.929385 27.038817 5.960631
2005-04-04 09:35:28 51°13.533 2°56.228 8.8736 2.933384 27.086493 5.825794
2005-04-04 09:35:34 51°13.535 2°56.225 8.9243 2.934963 27.105105 5.825794
2005-04-04 09:35:38 51°13.536 2°56.223 8.968 2.935595 27.113438 5.825794
2005-04-04 09:35:44 51°13.537 2°56.219 8.9923 2.930016 27.049667 5.893212
2005-04-04 09:35:48 51°13.538 2°56.217 9.0048 2.930016 27.049667 5.893212
2005-04-04 09:35:54 51°13.54 2°56.214 9.0152 2.904335 26.762724 5.690956
2005-04-04 09:35:58 51°13.541 2°56.211 9.0134 2.860449 26.262807 5.724665
2005-04-04 09:36:04 51°13.542 2°56.208 9.0069 2.82309 25.835289 5.724665
2005-04-04 09:36:08 51°13.543 2°56.205 9.0077 2.782052 25.373155 5.623537
2005-04-04 09:36:12 51°13.543 2°56.203 9.0037 2.756378 25.077206 5.657247
2005-04-04 09:36:18 51°13.545 2°56.2 9.0015 2.756378 25.077206 5.657247
2005-04-04 09:36:24 51°13.546 2°56.196 8.9981 2.744383 24.932354 5.623537
2005-04-04 09:36:28 51°13.547 2°56.193 8.9972 2.734388 24.816409 5.690956
2005-04-04 09:36:33 51°13.548 2°56.189 9.0181 2.731547 24.780038 5.657247
2005-04-04 09:36:37 51°13.548 2°56.185 9.0199 2.735545 24.815938 5.623537
2005-04-04 09:36:43 51°13.55 2°56.18 9.001 2.735545 24.815938 5.623537
2005-04-04 09:36:48 51°13.551 2°56.175 8.9859 2.738386 24.843148 5.4887
2005-04-04 09:36:52 51°13.552 2°56.171 8.9703 2.742173 24.88096 5.522409
2005-04-04 09:36:57 51°13.554 2°56.165 8.95 2.745014 24.911623 5.522409
2005-04-04 09:37:03 51°13.556 2°56.158 8.9012 2.744067 24.902167 5.589828
2005-04-04 09:37:08 51°13.558 2°56.152 8.9139 2.743436 24.890695 5.589828
2005-04-04 09:37:12 51°13.56 2°56.147 8.9111 2.743331 24.887349 5.556118
2005-04-04 09:37:17 51°13.562 2°56.14 8.9048 2.743331 24.887349 5.556118
2005-04-04 09:37:22 51°13.564 2°56.134 8.8965 2.747224 24.931963 5.522409
2005-04-04 09:37:28 51°13.567 2°56.126 8.8857 2.757009 25.037792 5.556118
2005-04-04 09:37:33 51°13.57 2°56.118 8.8608 2.769004 25.172815 5.556118
2005-04-04 09:37:37 51°13.572 2°56.112 8.8648 2.788785 25.393138 5.589828
2005-04-04 09:37:43 51°13.575 2°56.104 8.8544 2.792679 25.439816 5.589828
2005-04-04 09:37:48 51°13.578 2°56.097 8.8536 2.792679 25.439816 5.589828
2005-04-04 09:37:54 51°13.581 2°56.088 8.8548 2.795625 25.474671 5.556118
2005-04-04 09:37:58 51°13.583 2°56.082 8.8491 2.79773 25.499916 5.589828
2005-04-04 09:38:03 51°13.586 2°56.074 8.8479 2.804885 25.580024 5.589828
2005-04-04 09:38:08 51°13.589 2°56.066 8.8402 2.812777 25.670584 5.623537
2005-04-04 09:38:13 51°13.592 2°56.059 8.8473 2.812777 25.670584 5.623537
2005-04-04 09:38:18 51°13.595 2°56.051 8.8755 2.818249 25.734527 5.623537
2005-04-04 09:38:23 51°13.599 2°56.042 8.8923 2.820669 25.763047 5.589828
2005-04-04 09:38:28 51°13.602 2°56.034 8.9083 2.822563 25.783298 5.556118
2005-04-04 09:38:33 51°13.605 2°56.025 8.939 2.824458 25.806542 5.4887
2005-04-04 09:38:37 51°13.608 2°56.017 8.9826 2.826878 25.834493 5.4887
2005-04-04 09:38:43 51°13.612 2°56.006 9.0092 2.827615 25.843705 5.4887
2005-04-04 09:38:48 51°13.615 2°55.997 9.0326 2.827615 25.843705 5.4887
2005-04-04 09:38:53 51°13.619 2°55.987 9.0629 2.820775 25.769479 5.45499
2005-04-04 09:38:58 51°13.622 2°55.979 9.0941 2.809515 25.644332 5.353862
2005-04-04 09:39:02 51°13.626 2°55.97 9.1266 2.795415 25.487888 5.353862
2005-04-04 09:39:08 51°13.63 2°55.959 9.1831 2.780052 25.314383 5.320153
2005-04-04 09:39:14 51°13.635 2°55.948 9.1897 2.75985 25.084133 5.286443
2005-04-04 09:39:18 51°13.638 2°55.94 9.1737 2.75985 25.084133 5.286443
2005-04-04 09:39:23 51°13.642 2°55.929 9.1432 2.743331 24.897684 5.252734
2005-04-04 09:39:28 51°13.647 2°55.919 9.1069 2.727654 24.720656 5.185315
2005-04-04 09:39:33 51°13.651 2°55.909 9.0946 2.714713 24.567321 5.219024
2005-04-04 09:39:38 51°13.656 2°55.897 9.0433 2.696618 24.35923 5.219024
2005-04-04 09:39:43 51°13.661 2°55.886 9.0356 2.671159 24.079901 5.185315
2005-04-04 09:39:48 51°13.665 2°55.875 9.0226 2.671159 24.079901 5.185315
2005-04-04 09:39:53 51°13.671 2°55.863 9.0264 2.666635 24.02404 5.219024
2005-04-04 09:39:58 51°13.676 2°55.852 9.0146 2.678733 24.148329 5.117896
2005-04-04 09:40:04 51°13.683 2°55.838 8.9942 2.696197 24.336584 5.151606
2005-04-04 09:40:08 51°13.687 2°55.827 8.9908 2.714187 24.53215 5.151606
2005-04-04 09:40:14 51°13.694 2°55.815 8.9716 2.737017 24.785477 5.117896
2005-04-04 09:40:18 51°13.699 2°55.804 8.9504 2.737017 24.785477 5.117896
2005-04-04 09:40:22 51°13.704 2°55.794 8.9301 2.747434 24.901325 5.151606
2005-04-04 09:40:28 51°13.711 2°55.781 8.9094 2.753852 24.973975 5.219024
2005-04-04 09:40:32 51°13.718 2°55.77 8.8959 2.758797 25.030256 5.151606
2005-04-04 09:40:38 51°13.725 2°55.757 8.8687 2.76753 25.126744 5.185315
2005-04-04 09:40:41 51°13.73 2°55.749 8.8864 2.776474 25.227193 5.286443
2005-04-04 09:40:48 51°13.74 2°55.733 8.8728 2.776474 25.227193 5.286443
2005-04-04 09:40:52 51°13.746 2°55.722 8.8829 2.787627 25.350478 5.387571
2005-04-04 09:40:58 51°13.755 2°55.709 8.9032 2.799202 25.48169 5.4887
2005-04-04 09:41:04 51°13.766 2°55.695 8.9314 2.811619 25.622762 5.623537
2005-04-04 09:41:08 51°13.773 2°55.687 8.9367 2.821721 25.74143 5.724665
2005-04-04 09:41:13 51°13.782 2°55.677 8.9308 2.825825 25.791024 5.825794
2005-04-04 09:41:18 51°13.79 2°55.669 8.9515 2.825825 25.791024 5.825794
2005-04-04 09:41:23 51°13.8 2°55.659 8.9521 2.826246 25.800033 5.994341
2005-04-04 09:41:28 51°13.809 2°55.652 8.9594 2.822142 25.759367 6.129178
2005-04-04 09:41:32 51°13.818 2°55.646 8.9692 2.81667 25.698415 6.162888
2005-04-04 09:41:38 51°13.829 2°55.637 8.9949 2.807726 25.59375 6.162888
2005-04-04 09:41:43 51°13.839 2°55.629 9.0021 2.801202 25.520598 6.230306
2005-04-04 09:41:48 51°13.849 2°55.622 8.9898 2.801202 25.520598 6.230306
2005-04-04 09:41:53 51°13.859 2°55.614 8.9696 2.796361 25.466746 6.230306
2005-04-04 09:41:58 51°13.867 2°55.608 8.9434 2.791205 25.408003 6.297725
2005-04-04 09:42:03 51°13.878 2°55.599 8.921 2.786365 25.352469 6.365144
2005-04-04 09:42:08 51°13.887 2°55.592 8.8942 2.775632 25.238574 6.297725
2005-04-04 09:42:13 51°13.898 2°55.584 8.8633 2.762901 25.100166 6.365144
2005-04-04 09:42:18 51°13.907 2°55.577 8.7851 2.762901 25.100166 6.365144
2005-04-04 09:42:23 51°13.917 2°55.569 8.7519 2.758797 25.053936 6.432563
2005-04-04 09:42:28 51°13.926 2°55.563 8.7177 2.764584 25.117579 6.499982
2005-04-04 09:42:33 51°13.936 2°55.555 8.7017 2.776685 25.252022 6.432563
2005-04-04 09:42:37 51°13.945 2°55.548 8.6617 2.792363 25.426655 6.533691
2005-04-04 09:42:42 51°13.955 2°55.541 8.63 2.808357 25.607788 6.668529
2005-04-04 09:42:48 51°13.966 2°55.533 8.618 2.808357 25.607788 6.668529
2005-04-04 09:42:52 51°13.975 2°55.526 8.624 2.834034 25.894534 6.735947
2005-04-04 09:42:58 51°13.986 2°55.518 8.5921 2.855607 26.149952 6.837076
2005-04-04 09:43:04 51°13.998 2°55.51 8.5815 2.874024 26.372589 6.904494
2005-04-04 09:43:08 51°14.007 2°55.503 8.5838 2.8896 26.554245 6.904494
2005-04-04 09:43:12 51°14.015 2°55.497 8.5867 2.901283 26.69436 7.073042
2005-04-04 09:43:18 51°14.027 2°55.489 8.5945 2.901283 26.69436 7.073042
2005-04-04 09:43:23 51°14.039 2°55.481 8.6165 2.92107 26.925901 7.17417
2005-04-04 09:43:28 51°14.049 2°55.473 8.6382 2.927595 27.00358 7.14046
2005-04-04 09:43:32 51°14.058 2°55.467 8.6488 2.936121 27.106768 7.410136
2005-04-04 09:43:38 51°14.07 2°55.457 8.6645 2.942962 27.188508 7.376426
2005-04-04 09:43:43 51°14.082 2°55.448 8.6899 2.945699 27.22085 7.477554
2005-04-04 09:43:48 51°14.092 2°55.44 8.7147 2.945699 27.22085 7.477554
2005-04-04 09:43:54 51°14.107 2°55.429 8.7372 2.944541 27.209048 7.410136
2005-04-04 09:43:58 51°14.117 2°55.421 8.7383 2.938542 27.139659 7.443845
2005-04-04 09:44:03 51°14.13 2°55.411 8.7278 2.930437 27.04448 7.443845
2005-04-04 09:44:08 51°14.142 2°55.4 8.7081 2.924753 26.973415 7.275298
2005-04-04 09:44:13 51°14.155 2°55.39 8.6831 2.918228 26.89388 7.241589
2005-04-04 09:44:17 51°14.165 2°55.382 8.662 2.918228 26.89388 7.241589
2005-04-04 09:44:23 51°14.18 2°55.368 8.6551 2.907492 26.767333 7.207879
2005-04-04 09:44:28 51°14.191 2°55.358 8.648 2.896652 26.638704 7.106751
2005-04-04 09:44:34 51°14.206 2°55.343 8.642 2.890653 26.567379 7.005623
2005-04-04 09:44:38 51°14.215 2°55.332 8.6419 2.895283 26.615539 7.005623
2005-04-04 09:44:43 51°14.227 2°55.317 8.644 2.903072 26.703181 7.039332
2005-04-04 09:44:48 51°14.238 2°55.301 8.6501 2.903072 26.703181 7.039332
2005-04-04 09:44:53 51°14.249 2°55.285 8.6636 2.912755 26.815134 7.073042
2005-04-04 09:44:58 51°14.259 2°55.268 8.6746 2.920122 26.904351 7.17417
2005-04-04 09:45:02 51°14.266 2°55.257 8.6796 2.9257 26.969836 7.073042
2005-04-04 09:45:08 51°14.278 2°55.236 8.6838 2.930121 27.022973 7.14046
2005-04-04 09:45:13 51°14.289 2°55.216 8.6857 2.930121 27.022973 7.14046
2005-04-04 09:45:18 51°14.299 2°55.2 8.6947 2.931174 27.036202 6.971913
2005-04-04 09:45:23 51°14.309 2°55.181 8.7018 2.929174 27.015859 7.14046
2005-04-04 09:45:28 51°14.319 2°55.161 8.7198 2.924227 26.960515 7.14046
2005-04-04 09:45:32 51°14.328 2°55.144 8.7187 2.91707 26.880861 7.005623
2005-04-04 09:45:38 51°14.34 2°55.12 8.723 2.91307 26.832716 6.971913
2005-04-04 09:45:43 51°14.349 2°55.1 8.7268 2.912018 26.818276 6.904494
2005-04-04 09:45:48 51°14.358 2°55.081 8.7339 2.912018 26.818276 6.904494
2005-04-04 09:45:53 51°14.369 2°55.061 8.7257 2.911913 26.812833 7.073042
2005-04-04 09:45:58 51°14.379 2°55.04 8.7178 2.910439 26.791631 6.971913
2005-04-04 09:46:03 51°14.391 2°55.016 8.7182 2.906755 26.745523 6.971913
2005-04-04 09:46:08 51°14.401 2°54.994 8.7226 2.905808 26.729689 6.870785
2005-04-04 09:46:13 51°14.411 2°54.972 8.7107 2.906439 26.731738 7.005623
2005-04-04 09:46:18 51°14.42 2°54.952 8.7029 2.906439 26.731738 7.005623
2005-04-04 09:46:23 51°14.43 2°54.929 8.6892 2.90886 26.751928 6.938204
2005-04-04 09:46:28 51°14.441 2°54.905 8.671 2.912228 26.786083 7.039332
2005-04-04 09:46:33 51°14.451 2°54.884 8.6318 2.916438 26.831281 7.005623
2005-04-04 09:46:38 51°14.461 2°54.862 8.5923 2.921595 26.883607 6.971913
2005-04-04 09:46:42 51°14.469 2°54.844 8.5706 2.926226 26.933112 7.039332
2005-04-04 09:46:48 51°14.481 2°54.817 8.5574 2.926226 26.933112 7.039332
2005-04-04 09:46:53 51°14.491 2°54.792 8.5226 2.934015 27.015959 7.039332
2005-04-04 09:46:58 51°14.5 2°54.772 8.511 2.94454 27.132985 7.14046
2005-04-04 09:47:03 51°14.511 2°54.747 8.4928 2.961381 27.31696 7.207879
2005-04-04 09:47:08 51°14.52 2°54.727 8.4822 2.988644 27.62035 7.477554
2005-04-04 09:47:13 51°14.53 2°54.703 8.4646 3.013697 27.902739 7.679811
2005-04-04 09:47:18 51°14.539 2°54.683 8.454 3.013697 27.902739 7.679811
2005-04-04 09:47:23 51°14.549 2°54.658 8.4543 3.037594 28.166881 7.882067
2005-04-04 09:47:28 51°14.559 2°54.636 8.4459 3.067492 28.495921 8.185452
2005-04-04 09:47:33 51°14.568 2°54.614 8.4376 3.093497 28.783849 8.387708
2005-04-04 09:47:38 51°14.578 2°54.591 8.4323 3.117291 29.04363 8.556255
2005-04-04 09:47:42 51°14.584 2°54.576 8.4255 3.138454 29.279555 8.893349
2005-04-04 09:47:48 51°14.596 2°54.549 8.4159 3.138454 29.279555 8.893349
2005-04-04 09:47:53 51°14.605 2°54.527 8.415 3.157618 29.490478 8.960768
2005-04-04 09:47:58 51°14.616 2°54.502 8.4031 3.168779 29.614144 9.196734
2005-04-04 09:48:03 51°14.624 2°54.48 8.4001 3.177414 29.711797 9.061896
2005-04-04 09:48:08 51°14.633 2°54.457 8.3911 3.183837 29.783153 9.095606
2005-04-04 09:48:12 51°14.64 2°54.438 8.3852 3.190471 29.861645 8.994477
2005-04-04 09:48:18 51°14.649 2°54.413 8.38 3.190471 29.861645 8.994477
2005-04-04 09:48:22 51°14.656 2°54.395 8.3796 3.193524 29.896786 9.129315
2005-04-04 09:48:28 51°14.666 2°54.365 8.3798 3.19721 29.943414 9.129315
2005-04-04 09:48:33 51°14.674 2°54.341 8.3702 3.199948 29.979544 9.061896
2005-04-04 09:48:38 51°14.682 2°54.32 8.3662 3.201528 30.001566 9.129315
2005-04-04 09:48:43 51°14.691 2°54.295 8.3604 3.20416 30.036641 9.129315
2005-04-04 09:48:48 51°14.699 2°54.271 8.359 3.20416 30.036641 9.129315
2005-04-04 09:48:52 51°14.705 2°54.252 8.353 3.205424 30.055408 9.264153
2005-04-04 09:48:58 51°14.713 2°54.226 8.3449 3.205635 30.061839 9.331571
2005-04-04 09:49:02 51°14.72 2°54.204 8.3479 3.205845 30.067563 9.365281
2005-04-04 09:49:08 51°14.727 2°54.175 8.3356 3.205529 30.069946 9.196734
2005-04-04 09:49:13 51°14.734 2°54.15 8.3354 3.206267 30.082558 9.230443
2005-04-04 09:49:18 51°14.739 2°54.128 8.333 3.206267 30.082558 9.230443
2005-04-04 09:49:23 51°14.746 2°54.101 8.3243 3.206477 30.089705 9.331571
2005-04-04 09:49:28 51°14.752 2°54.078 8.3206 3.205424 30.081602 9.230443
2005-04-04 09:49:33 51°14.758 2°54.051 8.3179 3.205951 30.092033 9.264153
2005-04-04 09:49:38 51°14.763 2°54.029 8.3116 3.204266 30.079491 9.331571
2005-04-04 09:49:44 51°14.771 2°53.999 8.3195 3.204898 30.092438 9.365281
2005-04-04 09:49:48 51°14.776 2°53.977 8.3125 3.204898 30.092438 9.365281
2005-04-04 09:49:52 51°14.781 2°53.957 8.304 3.20395 30.087553 9.4327
2005-04-04 09:49:58 51°14.787 2°53.93 8.3068 3.204266 30.094384 9.668665
2005-04-04 09:50:03 51°14.793 2°53.902 8.2996 3.204266 30.097932 9.567537
2005-04-04 09:50:08 51°14.797 2°53.876 8.2981 3.20395 30.098197 9.736084
2005-04-04 09:50:12 51°14.799 2°53.855 8.2943 3.203213 30.093372 9.904631
2005-04-04 09:50:18 51°14.802 2°53.827 8.2956 3.203213 30.093372 9.904631
2005-04-04 09:50:23 51°14.804 2°53.798 8.2933 3.203213 30.095501 9.870922
2005-04-04 09:50:28 51°14.806 2°53.771 8.2902 3.203108 30.098666 10.140597
2005-04-04 09:50:33 51°14.807 2°53.745 8.2863 3.203003 30.101122 10.106888
2005-04-04 09:50:38 51°14.808 2°53.721 8.2828 3.203424 30.110476 10.376563
2005-04-04 09:50:43 51°14.809 2°53.691 8.2804 3.203424 30.113318 10.309144
2005-04-04 09:50:48 51°14.81 2°53.664 8.2691 3.203424 30.113318 10.309144
2005-04-04 09:50:53 51°14.811 2°53.637 8.2675 3.202161 30.103014 10.309144
2005-04-04 09:50:58 51°14.812 2°53.613 8.2638 3.199739 30.078527 10.309144
2005-04-04 09:51:03 51°14.813 2°53.583 8.2643 3.197106 30.054688 10.241725
2005-04-04 09:51:08 51°14.814 2°53.559 8.2619 3.193947 30.024661 9.870922
2005-04-04 09:51:13 51°14.815 2°53.53 8.2595 3.19142 30.001914 9.702375
2005-04-04 09:51:17 51°14.816 2°53.508 8.251 3.19142 30.001914 9.702375
2005-04-04 09:51:23 51°14.817 2°53.476 8.2563 3.188682 29.97839 9.466409
2005-04-04 09:51:28 51°14.818 2°53.449 8.2657 3.185945 29.954862 9.39899
2005-04-04 09:51:33 51°14.819 2°53.424 8.2625 3.185102 29.949635 9.196734
2005-04-04 09:51:37 51°14.82 2°53.401 8.2643 3.182996 29.930553 9.230443
2005-04-04 09:51:43 51°14.819 2°53.368 8.261 3.181733 29.918113 9.095606
2005-04-04 09:51:48 51°14.819 2°53.342 8.2578 3.181733 29.918113 9.095606
2005-04-04 09:51:53 51°14.818 2°53.315 8.2541 3.18089 29.912882 8.960768
2005-04-04 09:51:58 51°14.817 2°53.291 8.2565 3.180153 29.90804 8.893349
2005-04-04 09:52:04 51°14.815 2°53.258 8.2527 3.179416 29.897544 8.691093
2005-04-04 09:52:08 51°14.814 2°53.237 8.2531 3.179206 29.893234 8.657383
2005-04-04 09:52:13 51°14.813 2°53.207 8.2395 3.179416 29.895425 8.421418
2005-04-04 09:52:18 51°14.811 2°53.183 8.228 3.179416 29.895425 8.421418
2005-04-04 09:52:24 51°14.81 2°53.151 8.2005 3.179627 29.899735 8.522546
2005-04-04 09:52:28 51°14.809 2°53.129 8.1835 3.178574 29.890193 8.522546
2005-04-04 09:52:33 51°14.807 2°53.1 8.1668 3.178469 29.89051 8.353999
2005-04-04 09:52:38 51°14.806 2°53.075 8.1543 3.178995 29.897401 8.455127
2005-04-04 09:52:42 51°14.805 2°53.054 8.1431 3.178153 29.892168 8.353999
2005-04-04 09:52:48 51°14.803 2°53.019 8.1418 3.178153 29.892168 8.353999
2005-04-04 09:52:53 51°14.802 2°52.992 8.1429 3.177416 29.890149 8.455127
2005-04-04 09:52:58 51°14.801 2°52.968 8.1452 3.175731 29.887453 8.421418
2005-04-04 09:53:04 51°14.799 2°52.935 8.1556 3.174257 29.88978 8.556255
2005-04-04 09:53:08 51°14.798 2°52.911 8.1668 3.172573 29.887792 8.792221
2005-04-04 09:53:13 51°14.797 2°52.884 8.1707 3.170677 29.882901 8.85964
2005-04-04 09:53:18 51°14.796 2°52.86 8.1741 3.170677 29.882901 8.85964
2005-04-04 09:53:23 51°14.795 2°52.833 8.1806 3.170151 29.887327 8.960768
2005-04-04 09:53:28 51°14.794 2°52.803 8.1854 3.169519 29.885696 9.028187
2005-04-04 09:53:34 51°14.793 2°52.773 8.1904 3.168782 29.878716 8.960768
2005-04-04 09:53:38 51°14.792 2°52.752 8.1957 3.169519 29.882154 8.85964
2005-04-04 09:53:44 51°14.791 2°52.719 8.201 3.16994 29.878756 8.927059
2005-04-04 09:53:48 51°14.79 2°52.694 8.2023 3.16994 29.878756 8.927059
2005-04-04 09:53:53 51°14.789 2°52.667 8.2097 3.170888 29.885805 8.82593
2005-04-04 09:53:58 51°14.788 2°52.643 8.2148 3.171836 29.889313 8.724802
2005-04-04 09:54:03 51°14.786 2°52.613 8.2219 3.172783 29.895652 8.792221
2005-04-04 09:54:08 51°14.785 2°52.586 8.2288 3.173836 29.900962 8.724802
2005-04-04 09:54:12 51°14.784 2°52.564 8.2375 3.174678 29.905493 8.657383
2005-04-04 09:54:18 51°14.782 2°52.534 8.249 3.174678 29.905493 8.657383
2005-04-04 09:54:24 51°14.781 2°52.501 8.2553 3.175416 29.909634 8.657383
2005-04-04 09:54:28 51°14.78 2°52.48 8.26 3.176574 29.916747 8.724802
2005-04-04 09:54:34 51°14.779 2°52.447 8.2627 3.176995 29.915471 8.589965
2005-04-04 09:54:38 51°14.778 2°52.425 8.2576 3.178048 29.920776 8.623674
2005-04-04 09:54:43 51°14.778 2°52.395 8.2612 3.180048 29.935951 8.421418
2005-04-04 09:54:48 51°14.777 2°52.37 8.2658 3.180048 29.935951 8.421418
2005-04-04 09:54:53 51°14.777 2°52.346 8.2622 3.181101 29.93842 8.488836
2005-04-04 09:54:58 51°14.777 2°52.326 8.274 3.18247 29.942761 8.589965
2005-04-04 09:55:04 51°14.778 2°52.302 8.2668 3.183839 29.951348 8.421418
2005-04-04 09:55:08 51°14.779 2°52.285 8.2591 3.184576 29.956188 8.488836
2005-04-04 09:55:12 51°14.781 2°52.271 8.2358 3.18605 29.969408 8.589965
2005-04-04 09:55:17 51°14.783 2°52.254 8.2128 3.18605 29.969408 8.589965
2005-04-04 09:55:23 51°14.785 2°52.235 8.1901 3.186577 29.973471 8.623674
2005-04-04 09:55:28 51°14.786 2°52.22 8.1885 3.187419 29.980114 8.657383
2005-04-04 09:55:33 51°14.787 2°52.206 8.1774 3.188051 29.982439 8.657383
2005-04-04 09:55:38 51°14.788 2°52.194 8.1657 3.18784 29.980247 8.758512
2005-04-04 09:55:43 51°14.788 2°52.18 8.1651 3.188472 29.9932 8.893349
2005-04-04 09:55:48 51°14.788 2°52.168 8.1587 3.188472 29.9932 8.893349
2005-04-04 09:55:53 51°14.787 2°52.156 8.1519 3.187735 30.000415 8.893349
2005-04-04 09:55:58 51°14.786 2°52.144 8.145 3.186893 30.013643 8.82593
2005-04-04 09:56:04 51°14.785 2°52.132 8.1427 3.185419 30.011064 9.028187
2005-04-04 09:56:08 51°14.783 2°52.122 8.1387 3.184682 30.014749 8.960768
2005-04-04 09:56:13 51°14.781 2°52.113 8.1417 3.184366 30.017853 9.095606
2005-04-04 09:56:18 51°14.779 2°52.104 8.1369 3.184366 30.017853 9.095606
2005-04-04 09:56:23 51°14.776 2°52.094 8.1349 3.184577 30.027164 9.163024
2005-04-04 09:56:28 51°14.773 2°52.087 8.1324 3.18384 30.027301 8.994477
2005-04-04 09:56:33 51°14.77 2°52.078 8.1339 3.183419 30.028599 9.095606
2005-04-04 09:56:38 51°14.768 2°52.071 8.1357 3.183208 30.032809 8.994477
2005-04-04 09:56:44 51°14.765 2°52.063 8.1337 3.183313 30.036758 8.994477
2005-04-04 09:56:48 51°14.763 2°52.056 8.137 3.183313 30.036758 8.994477
2005-04-04 09:56:53 51°14.761 2°52.05 8.137 3.183103 30.035271 9.028187
2005-04-04 09:56:58 51°14.759 2°52.044 8.1355 3.183103 30.038834 9.028187
2005-04-04 09:57:04 51°14.756 2°52.036 8.1391 3.183524 30.043944 8.927059
2005-04-04 09:57:08 51°14.755 2°52.03 8.1445 3.183314 30.042458 8.960768
2005-04-04 09:57:13 51°14.753 2°52.024 8.1407 3.183735 30.046856 8.82593
2005-04-04 09:57:17 51°14.751 2°52.02 8.1424 3.183735 30.046856 8.82593
2005-04-04 09:57:23 51°14.75 2°52.012 8.1374 3.18384 30.047243 8.893349
2005-04-04 09:57:28 51°14.748 2°52.007 8.1404 3.183629 30.044331 8.657383
2005-04-04 09:57:32 51°14.747 2°52.002 8.1414 3.184156 30.049829 8.792221
2005-04-04 09:57:38 51°14.745 2°51.996 8.1372 3.184261 30.049503 8.792221
2005-04-04 09:57:43 51°14.744 2°51.99 8.1363 3.184261 30.049503 8.792221
2005-04-04 09:57:48 51°14.743 2°51.985 8.1381 3.184366 30.048465 8.792221
2005-04-04 09:57:53 51°14.742 2°51.98 8.1357 3.184472 30.050277 8.758512
2005-04-04 09:57:58 51°14.74 2°51.974 8.1319 3.184472 30.053128 8.758512
2005-04-04 09:58:02 51°14.739 2°51.97 8.1318 3.184366 30.050603 8.85964
2005-04-04 09:58:08 51°14.738 2°51.963 8.1301 3.184682 30.052476 8.691093
2005-04-04 09:58:13 51°14.737 2°51.957 8.1298 3.184998 30.058626 8.758512
2005-04-04 09:58:18 51°14.736 2°51.952 8.1281 3.184998 30.058626 8.758512
2005-04-04 09:58:23 51°14.735 2°51.946 8.1287 3.184682 30.055327 8.758512
2005-04-04 09:58:28 51°14.734 2°51.941 8.1247 3.184998 30.058626 8.893349
2005-04-04 09:58:32 51°14.733 2°51.936 8.1292 3.184682 30.057466 8.893349
2005-04-04 09:58:38 51°14.732 2°51.93 8.1259 3.185104 30.063292 8.82593
2005-04-04 09:58:44 51°14.73 2°51.923 8.1274 3.184788 30.062132 8.960768
2005-04-04 09:58:48 51°14.73 2°51.917 8.1282 3.184788 30.062132 8.960768
2005-04-04 09:58:52 51°14.729 2°51.913 8.1257 3.184788 30.062132 8.893349
2005-04-04 09:58:58 51°14.728 2°51.906 8.1251 3.185209 30.067958 8.893349
2005-04-04 09:59:03 51°14.727 2°51.899 8.1291 3.184577 30.062072 8.927059
2005-04-04 09:59:08 51°14.726 2°51.893 8.1278 3.184156 30.059099 8.927059
2005-04-04 09:59:13 51°14.725 2°51.887 8.1277 3.184051 30.058712 8.927059
2005-04-04 09:59:18 51°14.725 2°51.881 8.1285 3.184051 30.058712 8.927059
2005-04-04 09:59:22 51°14.724 2°51.876 8.1302 3.18921 30.112617 8.960768
2005-04-04 09:59:28 51°14.723 2°51.868 8.1291 3.187736 30.097214 9.028187
2005-04-04 09:59:34 51°14.723 2°51.861 8.1312 3.189316 30.114432 8.893349
2005-04-04 09:59:38 51°14.723 2°51.855 8.1313 3.18921 30.111903 8.927059
2005-04-04 09:59:44 51°14.722 2°51.848 8.1305 3.189316 30.113003 8.960768
2005-04-04 09:59:48 51°14.722 2°51.842 8.1292 3.189316 30.113003 8.960768
2005-04-04 09:59:53 51°14.722 2°51.835 8.1259 3.189421 30.112674 8.994477
2005-04-04 09:59:58 51°14.721 2°51.829 8.1248 3.189421 30.112674 8.85964
2005-04-04 10:00:02 51°14.721 2°51.823 8.1234 3.189421 30.113388 8.927059
2005-04-04 10:00:08 51°14.721 2°51.815 8.1218 3.189737 30.114545 8.893349
2005-04-04 10:00:13 51°14.721 2°51.809 8.1208 3.20311 30.254308 8.893349
2005-04-04 10:00:18 51°14.721 2°51.802 8.1208 3.20311 30.254308 8.893349
2005-04-04 10:00:22 51°14.721 2°51.797 8.12 3.189526 30.113774 8.893349
2005-04-04 10:00:28 51°14.721 2°51.789 8.1215 3.189842 30.118504 8.82593
2005-04-04 10:00:33 51°14.721 2°51.782 8.1233 3.189526 30.115203 8.994477
2005-04-04 10:00:38 51°14.721 2°51.776 8.1217 3.189842 30.119933 8.893349
2005-04-04 10:00:42 51°14.72 2°51.77 8.1272 3.189632 30.119877 9.061896
2005-04-04 10:00:48 51°14.72 2°51.762 8.1248 3.189632 30.119877 9.061896
2005-04-04 10:00:53 51°14.72 2°51.756 8.1289 3.189737 30.122407 8.960768
2005-04-04 10:00:58 51°14.72 2°51.749 8.1309 3.189737 30.123837 8.994477
2005-04-04 10:01:03 51°14.719 2°51.743 8.1346 3.188579 30.111732 9.061896
2005-04-04 10:01:08 51°14.719 2°51.736 8.1376 3.198266 30.212277 9.163024
2005-04-04 10:01:13 51°14.718 2°51.73 8.1384 3.190053 30.124993 9.095606
2005-04-04 10:01:18 51°14.718 2°51.724 8.1368 3.190053 30.124993 9.095606
2005-04-04 10:01:23 51°14.717 2°51.717 8.1386 3.190053 30.123564 9.095606
2005-04-04 10:01:28 51°14.717 2°51.711 8.1403 3.190263 30.124335 8.960768
2005-04-04 10:01:33 51°14.716 2°51.705 8.1412 3.190685 30.126591 8.927059
2005-04-04 10:01:38 51°14.715 2°51.7 8.1435 3.190685 30.124447 8.927059
2005-04-04 10:01:42 51°14.714 2°51.695 8.1462 3.191106 30.125989 8.893349
2005-04-04 10:01:48 51°14.713 2°51.687 8.149 3.191106 30.125989 8.893349
2005-04-04 10:01:53 51°14.712 2°51.681 8.1503 3.191211 30.125659 8.893349
2005-04-04 10:01:58 51°14.711 2°51.676 8.1498 3.191632 30.129345 8.85964
2005-04-04 10:02:04 51°14.71 2°51.669 8.1471 3.191527 30.12753 8.758512
2005-04-04 10:02:08 51°14.709 2°51.663 8.1446 3.191948 30.129786 8.691093
2005-04-04 10:02:13 51°14.708 2°51.657 8.1377 3.191948 30.128357 8.691093
2005-04-04 10:02:18 51°14.706 2°51.652 8.1346 3.191948 30.128357 8.691093
2005-04-04 10:02:23 51°14.705 2°51.646 8.1292 3.190895 30.115215 8.724802
2005-04-04 10:02:28 51°14.704 2°51.641 8.1219 3.191737 30.121156 8.657383
2005-04-04 10:02:33 51°14.702 2°51.634 8.118 3.192369 30.12704 8.623674
2005-04-04 10:02:38 51°14.701 2°51.628 8.1078 3.192264 30.127369 8.522546
2005-04-04 10:02:43 51°14.7 2°51.623 8.0945 3.192369 30.130613 8.522546
2005-04-04 10:02:48 51°14.698 2°51.616 8.0883 3.192369 30.130613 8.522546
2005-04-04 10:02:52 51°14.697 2°51.612 8.0749 3.191948 30.129071 8.522546
2005-04-04 10:02:58 51°14.695 2°51.605 8.06 3.197529 30.192389 8.556255
2005-04-04 10:03:03 51°14.694 2°51.599 8.0556 3.192159 30.14128 8.421418
2005-04-04 10:03:08 51°14.692 2°51.593 8.0501 3.191843 30.143701 8.488836
2005-04-04 10:03:13 51°14.691 2°51.587 8.0414 3.189737 30.131704 8.488836
2005-04-04 10:03:18 51°14.689 2°51.581 8.0344 3.189737 30.131704 8.488836
2005-04-04 10:03:22 51°14.688 2°51.577 8.0284 3.190053 30.143594 8.522546
2005-04-04 10:03:28 51°14.686 2°51.569 8.0151 3.189316 30.146626 8.623674
2005-04-04 10:03:33 51°14.685 2°51.563 8.0157 3.18879 30.150431 8.724802
2005-04-04 10:03:38 51°14.684 2°51.558 8.0021 3.187947 30.150932 8.758512
2005-04-04 10:03:43 51°14.682 2°51.551 8.0052 3.18721 30.151103 8.792221
2005-04-04 10:03:48 51°14.681 2°51.545 7.9993 3.18721 30.151103 8.792221
2005-04-04 10:03:52 51°14.679 2°51.54 7.9983 3.186263 30.148352 8.82593
2005-04-04 10:03:58 51°14.678 2°51.534 7.9997 3.185947 30.152934 8.792221
2005-04-04 10:04:03 51°14.676 2°51.527 7.9892 3.18521 30.153107 8.893349
2005-04-04 10:04:08 51°14.675 2°51.522 7.9892 3.184578 30.153666 8.960768
2005-04-04 10:04:13 51°14.673 2°51.515 7.99 3.182788 30.139933 8.994477
2005-04-04 10:04:18 51°14.672 2°51.51 7.9891 3.182788 30.139933 8.994477
2005-04-04 10:04:22 51°14.67 2°51.505 7.9869 3.18342 30.152298 8.927059
2005-04-04 10:04:28 51°14.669 2°51.497 7.9786 3.182999 30.150756 8.960768
2005-04-04 10:04:33 51°14.667 2°51.492 7.9813 3.182894 30.153243 8.960768
2005-04-04 10:04:38 51°14.666 2°51.486 7.9778 3.181735 30.143973 8.927059
2005-04-04 10:04:43 51°14.664 2°51.479 7.9815 3.182367 30.15347 8.994477
2005-04-04 10:04:48 51°14.663 2°51.474 7.9773 3.182367 30.15347 8.994477
2005-04-04 10:04:53 51°14.661 2°51.468 7.9769 3.180367 30.133931 9.163024
2005-04-04 10:04:58 51°14.66 2°51.462 7.9811 3.182367 30.155626 9.163024
2005-04-04 10:05:03 51°14.659 2°51.456 7.9776 3.182051 30.156625 9.163024
2005-04-04 10:05:08 51°14.658 2°51.45 7.9781 3.182578 30.165022 9.163024
2005-04-04 10:05:13 51°14.656 2°51.443 7.9798 3.182683 30.166846 9.163024
2005-04-04 10:05:18 51°14.655 2°51.438 7.9836 3.182683 30.166846 9.163024
2005-04-04 10:05:22 51°14.655 2°51.433 7.9811 3.180999 30.149895 9.4327
2005-04-04 10:05:28 51°14.653 2°51.425 7.9829 3.18163 30.158677 9.196734
2005-04-04 10:05:34 51°14.652 2°51.418 7.9845 3.182262 30.164585 9.129315
2005-04-04 10:05:38 51°14.651 2°51.413 7.986 3.182473 30.166075 9.061896
2005-04-04 10:05:43 51°14.65 2°51.406 7.9885 3.182367 30.164971 9.163024
2005-04-04 10:05:48 51°14.649 2°51.4 7.9889 3.182367 30.164971 9.163024
2005-04-04 10:05:52 51°14.648 2°51.395 7.9926 3.182367 30.164252 9.196734
2005-04-04 10:05:57 51°14.647 2°51.388 7.9926 3.185 30.191145 9.196734
2005-04-04 10:06:03 51°14.646 2°51.381 7.9934 3.182894 30.167617 9.163024
2005-04-04 10:06:08 51°14.645 2°51.375 7.9961 3.18321 30.169492 9.061896
2005-04-04 10:06:12 51°14.645 2°51.369 7.9945 3.181946 30.154802 9.163024
2005-04-04 10:06:18 51°14.643 2°51.363 7.9958 3.181946 30.154802 9.163024
2005-04-04 10:06:24 51°14.642 2°51.355 7.9978 3.182473 30.158886 9.129315
2005-04-04 10:06:28 51°14.641 2°51.35 7.9942 3.175944 30.089719 9.129315
2005-04-04 10:06:32 51°14.64 2°51.345 7.9965 3.183526 30.167772 9.230443
2005-04-04 10:06:39 51°14.639 2°51.336 7.9904 3.184368 30.175886 8.994477
2005-04-04 10:06:43 51°14.638 2°51.331 7.9868 3.184368 30.174448 9.028187
2005-04-04 10:06:48 51°14.637 2°51.324 7.9835 3.184368 30.174448 9.028187
2005-04-04 10:06:54 51°14.636 2°51.318 7.9775 3.184263 30.172625 9.028187
2005-04-04 10:06:58 51°14.635 2°51.312 7.9772 3.184789 30.176708 9.028187
2005-04-04 10:07:03 51°14.634 2°51.306 7.9751 3.184684 30.176323 8.960768
2005-04-04 10:07:08 51°14.633 2°51.3 7.969 3.184789 30.178146 9.163024
2005-04-04 10:07:13 51°14.631 2°51.294 7.9656 3.184684 30.179918 8.994477
2005-04-04 10:07:18 51°14.63 2°51.288 7.9632 3.184684 30.179918 8.994477
2005-04-04 10:07:24 51°14.628 2°51.281 7.9604 3.184368 30.179482 9.028187
2005-04-04 10:07:28 51°14.627 2°51.276 7.9585 3.18342 30.173139 8.994477
2005-04-04 10:07:33 51°14.626 2°51.269 7.9567 3.183842 30.180434 9.061896
2005-04-04 10:07:38 51°14.625 2°51.263 7.9526 3.18342 30.179613 9.129315
2005-04-04 10:07:42 51°14.623 2°51.259 7.951 3.18342 30.182491 9.264153
2005-04-04 10:07:48 51°14.622 2°51.251 7.9485 3.18342 30.182491 9.264153
2005-04-04 10:07:52 51°14.621 2°51.246 7.9451 3.206692 30.430406 9.095606
2005-04-04 10:07:57 51°14.619 2°51.24 7.9441 3.206587 30.432203 9.061896
2005-04-04 10:08:03 51°14.618 2°51.233 7.9433 3.206271 30.432514 9.028187
2005-04-04 10:08:08 51°14.616 2°51.227 7.9417 3.20585 30.42954 9.028187
2005-04-04 10:08:13 51°14.615 2°51.221 7.9391 3.20585 30.431718 9.095606
2005-04-04 10:08:18 51°14.614 2°51.214 7.9385 3.20585 30.431718 9.095606
2005-04-04 10:08:24 51°14.612 2°51.208 7.94 3.205429 30.42947 9.297862
2005-04-04 10:08:28 51°14.611 2°51.202 7.9373 3.205113 30.429781 9.129315
2005-04-04 10:08:34 51°14.61 2°51.195 7.9379 3.205007 30.430126 9.196734
2005-04-04 10:08:38 51°14.609 2°51.191 7.939 3.204691 30.428259 9.264153
2005-04-04 10:08:42 51°14.608 2°51.186 7.9354 3.204376 30.427117 9.230443
2005-04-04 10:08:48 51°14.606 2°51.178 7.9315 3.204376 30.427117 9.230443
2005-04-04 10:08:53 51°14.605 2°51.172 7.9327 3.20427 30.428189 9.331571
2005-04-04 10:08:57 51°14.604 2°51.166 7.9331 3.20427 30.428189 9.331571
2005-04-04 10:09:03 51°14.602 2°51.159 7.9344 3.204376 30.430022 9.264153
2005-04-04 10:09:08 51°14.601 2°51.153 7.9344 3.204165 30.428535 9.297862
2005-04-04 10:09:12 51°14.6 2°51.148 7.9343 3.20427 30.430368 9.230443
2005-04-04 10:09:18 51°14.598 2°51.14 7.9333 3.20427 30.430368 9.230443
2005-04-04 10:09:22 51°14.598 2°51.136 7.9357 3.204481 30.434035 9.365281
2005-04-04 10:09:28 51°14.596 2°51.128 7.9367 3.20406 30.43106 9.297862
2005-04-04 10:09:33 51°14.595 2°51.122 7.9336 3.20406 30.43106 9.230443
2005-04-04 10:09:38 51°14.594 2°51.115 7.9343 3.204165 30.432893 9.297862
2005-04-04 10:09:43 51°14.592 2°51.109 7.9326 3.20427 30.433274 9.196734
2005-04-04 10:09:48 51°14.591 2°51.102 7.9333 3.20427 30.433274 9.196734
2005-04-04 10:09:53 51°14.59 2°51.096 7.9366 3.204586 30.438048 9.39899
2005-04-04 10:09:58 51°14.589 2°51.09 7.9364 3.204481 30.434761 9.230443
2005-04-04 10:10:03 51°14.588 2°51.083 7.9431 3.204586 30.436595 9.297862
2005-04-04 10:10:08 51°14.587 2°51.077 7.9442 3.204586 30.437321 9.264153
2005-04-04 10:10:12 51°14.586 2°51.072 7.9439 3.204902 30.440643 9.533828
2005-04-04 10:10:18 51°14.585 2°51.065 7.9452 3.204902 30.440643 9.533828
2005-04-04 10:10:23 51°14.583 2°51.058 7.9431 3.204902 30.439916 9.297862
2005-04-04 10:10:28 51°14.582 2°51.052 7.9436 3.205218 30.441784 9.230443
2005-04-04 10:10:33 51°14.581 2°51.045 7.9426 3.205429 30.443271 9.095606
2005-04-04 10:10:38 51°14.58 2°51.039 7.9405 3.205534 30.442198 9.163024
2005-04-04 10:10:44 51°14.579 2°51.032 7.9404 3.20606 30.445553 9.264153
2005-04-04 10:10:48 51°14.578 2°51.026 7.9414 3.20606 30.445553 9.264153
2005-04-04 10:10:54 51°14.577 2°51.019 7.9419 3.206271 30.44704 9.264153
2005-04-04 10:10:58 51°14.576 2°51.014 7.9395 3.206587 30.448907 9.230443
2005-04-04 10:11:04 51°14.575 2°51.006 7.9394 3.206587 30.449634 9.264153
2005-04-04 10:11:08 51°14.574 2°51 7.939 3.206798 30.451847 9.163024
2005-04-04 10:11:13 51°14.573 2°50.994 7.9383 3.206903 30.454408 9.331571
2005-04-04 10:11:18 51°14.572 2°50.988 7.9377 3.206903 30.454408 9.331571
2005-04-04 10:11:23 51°14.571 2°50.981 7.937 3.206903 30.455135 9.230443
2005-04-04 10:11:28 51°14.57 2°50.975 7.9373 3.207219 30.459183 9.331571
2005-04-04 10:11:33 51°14.569 2°50.969 7.938 3.207219 30.45991 9.264153
2005-04-04 10:11:38 51°14.568 2°50.963 7.9359 3.207114 30.460257 9.230443
2005-04-04 10:11:43 51°14.567 2°50.955 7.938 3.207114 30.45953 9.230443
2005-04-04 10:11:48 51°14.567 2°50.949 7.9428 3.207114 30.45953 9.230443
2005-04-04 10:11:53 51°14.566 2°50.943 7.9402 3.207324 30.461017 9.39899
2005-04-04 10:11:58 51°14.565 2°50.937 7.9416 3.207219 30.462091 9.129315
2005-04-04 10:12:02 51°14.564 2°50.931 7.9445 3.207429 30.464305 9.163024
2005-04-04 10:12:08 51°14.563 2°50.923 7.9463 3.207429 30.465033 9.365281
2005-04-04 10:12:13 51°14.562 2°50.917 7.9531 3.207535 30.46614 9.129315
2005-04-04 10:12:18 51°14.562 2°50.911 7.9535 3.207535 30.46614 9.129315
2005-04-04 10:12:23 51°14.561 2°50.904 7.9587 3.207745 30.466172 9.230443
2005-04-04 10:12:28 51°14.56 2°50.897 7.9641 3.207956 30.467659 9.196734
2005-04-04 10:12:33 51°14.559 2°50.891 7.9674 3.207956 30.466932 9.230443
2005-04-04 10:12:38 51°14.559 2°50.885 7.9684 3.208272 30.468799 9.297862
2005-04-04 10:12:43 51°14.558 2°50.878 7.9732 3.208482 30.468104 9.230443
2005-04-04 10:12:48 51°14.558 2°50.871 7.9768 3.208482 30.468104 9.230443
2005-04-04 10:12:53 51°14.557 2°50.865 7.981 3.209114 30.471837 9.163024
2005-04-04 10:12:58 51°14.557 2°50.858 7.9849 3.209641 30.474462 9.129315
2005-04-04 10:13:04 51°14.556 2°50.85 7.9896 3.210272 30.477467 9.163024
2005-04-04 10:13:08 51°14.556 2°50.844 7.998 3.21101 30.48085 9.163024
2005-04-04 10:13:13 51°14.555 2°50.838 8.0014 3.211536 30.483475 9.230443
2005-04-04 10:13:18 51°14.555 2°50.832 8.0038 3.211536 30.483475 9.230443
2005-04-04 10:13:22 51°14.554 2°50.827 8.0067 3.212589 30.489449 9.095606
2005-04-04 10:13:28 51°14.553 2°50.819 8.0082 3.21301 30.490239 9.163024
2005-04-04 10:13:33 51°14.553 2°50.812 8.0082 3.213853 30.494727 9.095606
2005-04-04 10:13:38 51°14.552 2°50.806 8.011 3.214484 30.498455 9.129315
2005-04-04 10:13:44 51°14.551 2°50.798 8.0116 3.215116 30.498549 9.230443
2005-04-04 10:13:48 51°14.55 2°50.793 8.0112 3.215116 30.498549 9.230443
2005-04-04 10:13:53 51°14.549 2°50.786 8.0118 3.215853 30.501928 9.028187
2005-04-04 10:13:58 51°14.548 2°50.781 8.0121 3.216696 30.508593 9.196734
2005-04-04 10:14:04 51°14.547 2°50.773 8.0128 3.217538 30.51453 9.163024
2005-04-04 10:14:08 51°14.546 2°50.768 8.0138 3.217854 30.515666 9.095606
2005-04-04 10:14:14 51°14.545 2°50.761 8.0132 3.21838 30.518286 9.061896
2005-04-04 10:14:18 51°14.544 2°50.756 8.0117 3.21838 30.518286 9.061896
2005-04-04 10:14:23 51°14.543 2°50.749 8.012 3.218802 30.522708 9.163024
2005-04-04 10:14:28 51°14.542 2°50.743 8.0112 3.219328 30.528235 9.061896
2005-04-04 10:14:33 51°14.541 2°50.737 8.0088 3.219644 30.530098 9.196734
2005-04-04 10:14:38 51°14.54 2°50.731 8.0094 3.219855 30.533036 9.163024
2005-04-04 10:14:43 51°14.538 2°50.725 8.0113 3.220276 30.536003 9.230443
2005-04-04 10:14:48 51°14.537 2°50.719 8.007 3.220276 30.536003 9.230443
2005-04-04 10:14:53 51°14.535 2°50.713 8.0052 3.220381 30.537836 9.163024
2005-04-04 10:14:58 51°14.534 2°50.707 8.0073 3.220697 30.540425 9.264153
2005-04-04 10:15:04 51°14.532 2°50.701 8.0052 3.220486 30.539669 9.331571
2005-04-04 10:15:08 51°14.53 2°50.696 8.0018 3.220697 30.54188 9.230443
2005-04-04 10:15:12 51°14.529 2°50.691 8.0028 3.220802 30.543713 9.163024
2005-04-04 10:15:18 51°14.527 2°50.685 7.9965 3.220802 30.543713 9.163024
2005-04-04 10:15:24 51°14.525 2°50.679 7.9963 3.220908 30.546274 9.297862
2005-04-04 10:15:28 51°14.523 2°50.673 7.9967 3.220908 30.547729 9.297862
2005-04-04 10:15:33 51°14.521 2°50.668 7.9927 3.220908 30.547729 9.196734
2005-04-04 10:15:38 51°14.52 2°50.663 7.9952 3.220802 30.547351 9.297862
2005-04-04 10:15:42 51°14.518 2°50.658 7.9914 3.220908 30.549913 9.230443
2005-04-04 10:15:48 51°14.516 2°50.651 7.9901 3.220908 30.549913 9.230443
2005-04-04 10:15:54 51°14.514 2°50.645 7.9912 3.220908 30.552824 9.297862
2005-04-04 10:15:58 51°14.513 2°50.64 7.9895 3.220697 30.552796 9.297862
2005-04-04 10:16:03 51°14.511 2°50.634 7.9893 3.220592 30.553146 9.39899
2005-04-04 10:16:08 51°14.509 2°50.628 7.9858 3.220592 30.553874 9.230443
2005-04-04 10:16:14 51°14.507 2°50.622 7.9888 3.220487 30.554225 9.331571
2005-04-04 10:16:18 51°14.506 2°50.617 7.9853 3.220487 30.554225 9.331571
2005-04-04 10:16:22 51°14.504 2°50.612 7.9837 3.220276 30.553469 9.365281
2005-04-04 10:16:28 51°14.502 2°50.605 7.9848 3.220171 30.552363 9.365281
2005-04-04 10:16:33 51°14.501 2°50.598 7.9859 3.220276 30.554925 9.39899
2005-04-04 10:16:38 51°14.499 2°50.593 7.9863 3.21996 30.552335 9.39899
2005-04-04 10:16:43 51°14.497 2°50.586 7.9855 3.220065 30.554897 9.4327
2005-04-04 10:16:48 51°14.496 2°50.581 7.9875 3.220065 30.554897 9.4327
2005-04-04 10:16:53 51°14.494 2°50.574 7.9854 3.220171 30.556004 9.331571
2005-04-04 10:16:58 51°14.493 2°50.569 7.9875 3.220171 30.558189 9.601247
2005-04-04 10:17:04 51°14.491 2°50.561 7.9864 3.220171 30.558917 9.39899
2005-04-04 10:17:08 51°14.49 2°50.556 7.9877 3.220276 30.558567 9.4327
2005-04-04 10:17:13 51°14.489 2°50.55 7.9889 3.220592 30.561886 9.365281
2005-04-04 10:17:18 51°14.487 2°50.544 7.9911 3.220592 30.561886 9.365281
2005-04-04 10:17:23 51°14.486 2°50.538 7.9892 3.220592 30.561157 9.4327
2005-04-04 10:17:28 51°14.485 2°50.531 7.9901 3.220908 30.564476 9.4327
2005-04-04 10:17:33 51°14.483 2°50.525 7.9907 3.221013 30.566311 9.466409
2005-04-04 10:17:38 51°14.482 2°50.519 7.9914 3.221119 30.567417 9.4327
2005-04-04 10:17:44 51°14.481 2°50.512 7.993 3.221329 30.568173 9.365281
2005-04-04 10:17:48 51°14.479 2°50.507 7.9948 3.221329 30.568173 9.365281
2005-04-04 10:17:53 51°14.478 2°50.501 7.9961 3.221645 30.571492 9.634956
2005-04-04 10:17:58 51°14.477 2°50.495 7.9953 3.221961 30.574082 9.533828
2005-04-04 10:18:02 51°14.475 2°50.49 7.9972 3.222277 30.577401 9.533828
2005-04-04 10:18:08 51°14.474 2°50.482 8.0003 3.222487 30.577427 9.365281
2005-04-04 10:18:13 51°14.472 2°50.476 7.9976 3.222593 30.577805 9.466409
2005-04-04 10:18:18 51°14.471 2°50.47 8.0001 3.222593 30.577805 9.466409
2005-04-04 10:18:21 51°14.47 2°50.466 8.0006 3.222698 30.577453 9.736084
2005-04-04 10:18:28 51°14.469 2°50.457 8.0019 3.223014 30.579315 9.668665
2005-04-04 10:18:32 51°14.467 2°50.453 8.0035 3.223119 30.581149 9.769794
2005-04-04 10:18:39 51°14.466 2°50.444 8.0039 3.223225 30.581527 9.500118
2005-04-04 10:18:44 51°14.464 2°50.438 8.0089 3.22354 30.584117 9.702375
2005-04-04 10:18:48 51°14.463 2°50.433 8.01 3.22354 30.584117 9.702375
2005-04-04 10:18:53 51°14.462 2°50.427 8.0141 3.223751 30.584143 9.39899
2005-04-04 10:18:58 51°14.46 2°50.421 8.0161 3.223856 30.585977 9.567537
2005-04-04 10:19:02 51°14.46 2°50.417 8.02 3.224067 30.586732 9.668665
2005-04-04 10:19:08 51°14.457 2°50.409 8.0263 3.224383 30.588593 9.736084
2005-04-04 10:19:13 51°14.456 2°50.403 8.0302 3.224699 30.590453 9.365281
2005-04-04 10:19:18 51°14.454 2°50.397 8.0347 3.224699 30.590453 9.365281
2005-04-04 10:19:22 51°14.453 2°50.393 8.0382 3.225015 30.590856 9.533828
2005-04-04 10:19:28 51°14.451 2°50.386 8.0435 3.225225 30.590882 9.39899
2005-04-04 10:19:33 51°14.449 2°50.381 8.0457 3.225541 30.590556 9.39899
2005-04-04 10:19:38 51°14.448 2°50.375 8.0482 3.225962 30.592064 9.466409
2005-04-04 10:19:42 51°14.446 2°50.37 8.0521 3.22691 30.596915 9.500118
2005-04-04 10:19:48 51°14.444 2°50.363 8.0552 3.22691 30.596915 9.500118
2005-04-04 10:19:53 51°14.442 2°50.358 8.0574 3.227436 30.598071 9.297862
2005-04-04 10:19:58 51°14.441 2°50.353 8.0603 3.228489 30.605482 9.297862
2005-04-04 10:20:01 51°14.439 2°50.349 8.0589 3.229332 30.609953 9.196734
2005-04-04 10:20:08 51°14.437 2°50.341 8.061 3.23028 30.616257 9.264153
2005-04-04 10:20:13 51°14.435 2°50.336 8.0638 3.230911 30.619244 9.297862
2005-04-04 10:20:18 51°14.433 2°50.33 8.0641 3.230911 30.619244 9.297862
2005-04-04 10:20:23 51°14.432 2°50.325 8.065 3.231859 30.626275 9.095606
2005-04-04 10:20:28 51°14.43 2°50.319 8.0627 3.23228 30.626323 9.264153
2005-04-04 10:20:33 51°14.428 2°50.314 8.0639 3.233228 30.635538 9.196734
2005-04-04 10:20:38 51°14.426 2°50.309 8.065 3.233439 30.635561 9.230443
2005-04-04 10:20:43 51°14.424 2°50.303 8.0638 3.23386 30.638523 9.061896
2005-04-04 10:20:48 51°14.422 2°50.297 8.065 3.23386 30.638523 9.061896
2005-04-04 10:20:54 51°14.42 2°50.291 8.067 3.234492 30.642965 9.061896
2005-04-04 10:20:58 51°14.419 2°50.287 8.0654 3.235018 30.64776 9.129315
2005-04-04 10:21:02 51°14.417 2°50.282 8.0667 3.235229 30.650698 9.061896
2005-04-04 10:21:08 51°14.415 2°50.275 8.0653 3.235545 30.653283 9.095606
2005-04-04 10:21:13 51°14.413 2°50.27 8.0665 3.235861 30.656597 9.264153
2005-04-04 10:21:18 51°14.411 2°50.265 8.0652 3.235861 30.656597 9.264153
2005-04-04 10:21:23 51°14.409 2°50.259 8.0664 3.236071 30.658078 9.163024
2005-04-04 10:21:28 51°14.408 2°50.253 8.0674 3.236282 30.659558 9.230443
2005-04-04 10:21:33 51°14.406 2°50.249 8.0665 3.236387 30.659934 9.230443
2005-04-04 10:21:38 51°14.405 2°50.244 8.0658 3.236598 30.661414 9.163024
2005-04-04 10:21:42 51°14.403 2°50.239 8.0625 3.236914 30.665457 9.196734
2005-04-04 10:21:48 51°14.401 2°50.232 8.0649 3.236914 30.665457 9.196734
2005-04-04 10:21:53 51°14.399 2°50.226 8.0642 3.237019 30.667291 9.095606
2005-04-04 10:21:58 51°14.397 2°50.22 8.0605 3.236914 30.664728 9.129315
2005-04-04 10:22:02 51°14.396 2°50.216 8.0607 3.237019 30.665104 9.264153
2005-04-04 10:22:08 51°14.393 2°50.208 8.0591 3.237124 30.666937 9.196734
2005-04-04 10:22:13 51°14.391 2°50.203 8.0586 3.237335 30.670605 9.095606
2005-04-04 10:22:18 51°14.39 2°50.197 8.0585 3.237335 30.670605 9.095606
2005-04-04 10:22:24 51°14.388 2°50.19 8.0548 3.237019 30.66802 9.230443
2005-04-04 10:22:28 51°14.386 2°50.186 8.0561 3.237335 30.672064 9.196734
2005-04-04 10:22:33 51°14.385 2°50.179 8.0553 3.237335 30.672064 9.297862
2005-04-04 10:22:38 51°14.383 2°50.174 8.0541 3.237335 30.672794 9.39899
2005-04-04 10:22:44 51°14.381 2°50.167 8.0531 3.23723 30.673148 9.297862
2005-04-04 10:22:48 51°14.38 2°50.162 8.0556 3.23723 30.673148 9.297862
2005-04-04 10:22:54 51°14.378 2°50.155 8.0511 3.23723 30.674607 9.331571
2005-04-04 10:22:58 51°14.377 2°50.15 8.0516 3.23723 30.675336 9.365281
2005-04-04 10:23:03 51°14.375 2°50.143 8.0502 3.237019 30.674586 9.4327
2005-04-04 10:23:08 51°14.373 2°50.137 8.0495 3.23723 30.676066 9.466409
2005-04-04 10:23:13 51°14.372 2°50.131 8.0485 3.237019 30.676045 9.601247
2005-04-04 10:23:18 51°14.371 2°50.126 8.0494 3.237019 30.676045 9.601247
2005-04-04 10:23:23 51°14.369 2°50.119 8.0489 3.237019 30.676045 9.466409
2005-04-04 10:23:28 51°14.367 2°50.113 8.0484 3.237019 30.677505 9.567537
2005-04-04 10:23:34 51°14.366 2°50.106 8.0451 3.237019 30.678234 9.533828
2005-04-04 10:23:38 51°14.365 2°50.101 8.0453 3.236914 30.677129 9.702375
2005-04-04 10:23:42 51°14.364 2°50.096 8.0472 3.236809 30.677484 9.466409
2005-04-04 10:23:48 51°14.361 2°50.088 8.0446 3.236809 30.677484 9.466409
2005-04-04 10:23:53 51°14.36 2°50.082 8.0454 3.236598 30.676003 9.500118
2005-04-04 10:23:58 51°14.359 2°50.076 8.044 3.236703 30.676379 9.4327
2005-04-04 10:24:02 51°14.358 2°50.071 8.0424 3.236809 30.678944 9.601247
2005-04-04 10:24:08 51°14.356 2°50.063 8.0421 3.236387 30.675252 9.668665
2005-04-04 10:24:13 51°14.355 2°50.057 8.0399 3.236493 30.677088 9.634956
2005-04-04 10:24:18 51°14.354 2°50.051 8.0415 3.236493 30.677088 9.634956
2005-04-04 10:24:23 51°14.353 2°50.044 8.0407 3.236493 30.677818 9.601247
2005-04-04 10:24:28 51°14.352 2°50.038 8.0417 3.236493 30.677088 9.702375
2005-04-04 10:24:32 51°14.351 2°50.033 8.0393 3.236387 30.677442 9.803503
2005-04-04 10:24:37 51°14.349 2°50.027 8.04 3.236282 30.677067 9.702375
2005-04-04 10:24:43 51°14.348 2°50.019 8.0362 3.236177 30.676691 9.668665
2005-04-04 10:24:48 51°14.347 2°50.013 8.0356 3.236177 30.676691 9.668665
2005-04-04 10:24:53 51°14.345 2°50.007 8.0359 3.236177 30.676691 9.736084
2005-04-04 10:24:58 51°14.344 2°50.001 8.0331 3.236282 30.678527 9.870922
2005-04-04 10:25:02 51°14.343 2°49.996 8.0343 3.236071 30.676316 9.736084
2005-04-04 10:25:08 51°14.341 2°49.988 8.0326 3.235966 30.676671 9.769794
2005-04-04 10:25:13 51°14.34 2°49.982 8.0323 3.235966 30.677401 9.702375
2005-04-04 10:25:18 51°14.338 2°49.977 8.0317 3.235966 30.677401 9.702375
2005-04-04 10:25:23 51°14.337 2°49.971 8.0309 3.23565 30.675544 9.803503
2005-04-04 10:25:28 51°14.335 2°49.965 8.0304 3.23565 30.677005 9.601247
2005-04-04 10:25:33 51°14.333 2°49.958 8.027 3.23544 30.675524 9.702375
2005-04-04 10:25:38 51°14.331 2°49.953 8.028 3.235545 30.677359 9.736084
2005-04-04 10:25:44 51°14.329 2°49.945 8.0254 3.23544 30.677714 9.837212
2005-04-04 10:25:48 51°14.327 2°49.94 8.0219 3.23544 30.677714 9.837212
2005-04-04 10:25:54 51°14.325 2°49.933 8.0234 3.235545 30.67882 9.702375
2005-04-04 10:25:58 51°14.323 2°49.929 8.0239 3.235334 30.677339 9.803503
2005-04-04 10:26:03 51°14.321 2°49.923 8.0216 3.235229 30.676963 9.702375
2005-04-04 10:26:08 51°14.32 2°49.917 8.0213 3.235019 30.676212 9.837212
2005-04-04 10:26:13 51°14.318 2°49.911 8.0186 3.235019 30.676943 9.803503
2005-04-04 10:26:18 51°14.316 2°49.906 8.0179 3.235019 30.676943 9.803503
2005-04-04 10:26:23 51°14.314 2°49.899 8.0186 3.234808 30.677653 9.870922
2005-04-04 10:26:28 51°14.312 2°49.893 8.0144 3.234808 30.678383 9.803503
2005-04-04 10:26:33 51°14.31 2°49.887 8.0176 3.234808 30.678383 9.702375
2005-04-04 10:26:38 51°14.308 2°49.882 8.0146 3.234597 30.676902 9.837212
2005-04-04 10:26:43 51°14.306 2°49.876 8.0138 3.234387 30.67542 9.769794
2005-04-04 10:26:48 51°14.304 2°49.871 8.0126 3.234387 30.67542 9.769794
2005-04-04 10:26:53 51°14.302 2°49.864 8.0155 3.234387 30.676881 9.769794
2005-04-04 10:26:58 51°14.3 2°49.859 8.0127 3.234492 30.678718 9.769794
2005-04-04 10:27:04 51°14.298 2°49.852 8.012 3.234492 30.680179 9.904631
2005-04-04 10:27:08 51°14.296 2°49.847 8.0112 3.234281 30.678697 9.769794
2005-04-04 10:27:13 51°14.295 2°49.841 8.0113 3.234597 30.682746 9.803503
2005-04-04 10:27:18 51°14.293 2°49.835 8.0101 3.234597 30.682746 9.803503
2005-04-04 10:27:23 51°14.291 2°49.829 8.0106 3.234282 30.680159 9.803503
2005-04-04 10:27:28 51°14.289 2°49.823 8.0121 3.234492 30.68164 9.904631
2005-04-04 10:27:34 51°14.287 2°49.815 8.0112 3.234387 30.681265 9.870922
2005-04-04 10:27:38 51°14.286 2°49.81 8.0133 3.234703 30.686045 10.073178
2005-04-04 10:27:43 51°14.283 2°49.803 8.0104 3.234913 30.688257 10.106888
2005-04-04 10:27:48 51°14.282 2°49.797 8.0116 3.234913 30.688257 10.106888
2005-04-04 10:27:53 51°14.28 2°49.791 8.0095 3.235124 30.691932 10.073178
2005-04-04 10:27:58 51°14.279 2°49.785 8.0122 3.235229 30.6945 10.174306
2005-04-04 10:28:01 51°14.278 2°49.781 8.0112 3.235651 30.697463 10.241725
2005-04-04 10:28:08 51°14.276 2°49.772 8.0115 3.235756 30.697838 10.140597
2005-04-04 10:28:12 51°14.274 2°49.767 8.0115 3.236177 30.702995 10.140597
2005-04-04 10:28:18 51°14.272 2°49.758 8.0132 3.236177 30.702995 10.140597
2005-04-04 10:28:22 51°14.271 2°49.754 8.0171 3.236282 30.704101 10.073178
2005-04-04 10:28:28 51°14.269 2°49.745 8.0163 3.236704 30.708526 10.241725
2005-04-04 10:28:33 51°14.268 2°49.739 8.0148 3.236809 30.709633 10.208016
2005-04-04 10:28:38 51°14.266 2°49.733 8.0191 3.237546 30.717377 10.275435
2005-04-04 10:28:42 51°14.265 2°49.728 8.0201 3.237546 30.716646 10.443982
2005-04-04 10:28:48 51°14.264 2°49.721 8.0188 3.237546 30.716646 10.443982
2005-04-04 10:28:53 51°14.262 2°49.714 8.0207 3.237862 30.719965 10.342853
2005-04-04 10:28:58 51°14.261 2°49.708 8.0185 3.237757 30.718127 10.342853
2005-04-04 10:29:03 51°14.26 2°49.702 8.0202 3.238073 30.719982 10.073178
2005-04-04 10:29:08 51°14.258 2°49.695 8.0186 3.238073 30.719982 10.309144
2005-04-04 10:29:13 51°14.257 2°49.688 8.0202 3.238178 30.718162 10.073178
2005-04-04 10:29:18 51°14.256 2°49.681 8.0191 3.238178 30.718162 10.073178
2005-04-04 10:29:24 51°14.254 2°49.674 8.0198 3.238388 30.719643 10.106888
2005-04-04 10:29:28 51°14.253 2°49.668 8.021 3.238283 30.719269 10.073178
2005-04-04 10:29:33 51°14.252 2°49.662 8.0217 3.238283 30.719269 10.005759
2005-04-04 10:29:38 51°14.251 2°49.655 8.0212 3.238704 30.72223 9.904631
2005-04-04 10:29:44 51°14.249 2°49.648 8.0244 3.238494 30.719286 10.005759
2005-04-04 10:29:48 51°14.248 2°49.642 8.0235 3.238494 30.719286 10.005759
2005-04-04 10:29:53 51°14.246 2°49.635 8.0237 3.238599 30.721124 9.904631
2005-04-04 10:29:58 51°14.245 2°49.63 8.024 3.238494 30.720018 10.005759
2005-04-04 10:30:04 51°14.243 2°49.622 8.0255 3.238494 30.719286 9.870922
2005-04-04 10:30:08 51°14.242 2°49.617 8.0275 3.238599 30.721124 9.803503
2005-04-04 10:30:12 51°14.24 2°49.611 8.0287 3.238599 30.71893 9.870922
2005-04-04 10:30:18 51°14.238 2°49.604 8.0251 3.238599 30.71893 9.870922
2005-04-04 10:30:23 51°14.237 2°49.597 8.0276 3.23881 30.721142 9.837212
2005-04-04 10:30:28 51°14.235 2°49.591 8.0265 3.23881 30.72041 9.870922
2005-04-04 10:30:33 51°14.234 2°49.584 8.0259 3.238915 30.720785 9.938341
2005-04-04 10:30:38 51°14.232 2°49.578 8.0267 3.238704 30.717842 9.668665
2005-04-04 10:30:44 51°14.23 2°49.571 8.028 3.238915 30.719322 9.634956
2005-04-04 10:30:48 51°14.23 2°49.564 8.0292 3.238915 30.719322 9.634956
2005-04-04 10:30:53 51°14.229 2°49.557 8.0274 3.23902 30.72116 9.601247
2005-04-04 10:30:58 51°14.229 2°49.55 8.0318 3.239231 30.723372 9.769794
2005-04-04 10:31:04 51°14.228 2°49.542 8.0297 3.239231 30.72264 9.634956
2005-04-04 10:31:08 51°14.227 2°49.536 8.027 3.239231 30.721909 9.668665
2005-04-04 10:31:13 51°14.225 2°49.53 8.0285 3.239652 30.725601 9.601247
2005-04-04 10:31:18 51°14.224 2°49.524 8.0286 3.239652 30.725601 9.601247
2005-04-04 10:31:24 51°14.222 2°49.516 8.0279 3.239441 30.723389 9.601247
2005-04-04 10:31:28 51°14.22 2°49.51 8.0292 3.239757 30.725976 9.601247
2005-04-04 10:31:33 51°14.219 2°49.503 8.0294 3.239652 30.724139 9.634956
2005-04-04 10:31:38 51°14.217 2°49.497 8.0327 3.239863 30.72635 9.668665
2005-04-04 10:31:44 51°14.216 2°49.488 8.0305 3.239968 30.728188 9.769794
2005-04-04 10:31:48 51°14.215 2°49.483 8.0331 3.239968 30.728188 9.769794
2005-04-04 10:31:52 51°14.214 2°49.476 8.0329 3.239863 30.728545 9.668665
2005-04-04 10:31:58 51°14.212 2°49.469 8.0314 3.239863 30.728545 9.601247
2005-04-04 10:32:04 51°14.211 2°49.46 8.0286 3.239863 30.72635 9.702375
2005-04-04 10:32:08 51°14.211 2°49.453 8.0309 3.239652 30.724139 9.736084
2005-04-04 10:32:13 51°14.21 2°49.446 8.0277 3.239968 30.727456 9.702375
2005-04-04 10:32:18 51°14.21 2°49.439 8.0265 3.239968 30.727456 9.702375
2005-04-04 10:32:22 51°14.21 2°49.433 8.0288 3.240073 30.727099 9.668665
2005-04-04 10:32:28 51°14.21 2°49.423 8.0255 3.239968 30.726725 9.702375
2005-04-04 10:32:33 51°14.21 2°49.416 8.0242 3.239968 30.727456 9.769794
2005-04-04 10:32:38 51°14.21 2°49.408 8.0266 3.239968 30.727456 9.870922
2005-04-04 10:32:44 51°14.21 2°49.399 8.0269 3.239968 30.728188 9.938341
2005-04-04 10:32:48 51°14.211 2°49.392 8.0273 3.239968 30.728188 9.938341
2005-04-04 10:32:52 51°14.211 2°49.386 8.028 3.239757 30.726707 9.904631
2005-04-04 10:32:58 51°14.211 2°49.377 8.0289 3.239968 30.729651 10.039469
2005-04-04 10:33:04 51°14.212 2°49.367 8.0299 3.239863 30.728545 10.073178
2005-04-04 10:33:08 51°14.212 2°49.36 8.0308 3.239863 30.73074 10.039469
2005-04-04 10:33:12 51°14.213 2°49.353 8.0312 3.239652 30.727796 10.039469
2005-04-04 10:33:18 51°14.214 2°49.343 8.0342 3.239652 30.727796 10.039469
2005-04-04 10:33:22 51°14.214 2°49.338 8.0355 3.239968 30.731846 10.073178
2005-04-04 10:33:28 51°14.215 2°49.327 8.0369 3.239652 30.727064 10.174306
2005-04-04 10:33:32 51°14.216 2°49.321 8.0384 3.240073 30.730025 10.039469
2005-04-04 10:33:38 51°14.217 2°49.312 8.0413 3.240073 30.729294 10.174306
2005-04-04 10:33:44 51°14.219 2°49.302 8.0433 3.240495 30.732986 10.140597
2005-04-04 10:33:48 51°14.22 2°49.296 8.0418 3.240495 30.732986 10.140597
2005-04-04 10:33:53 51°14.222 2°49.287 8.0452 3.2406 30.733361 10.005759
2005-04-04 10:33:58 51°14.224 2°49.279 8.0418 3.240705 30.733003 10.208016
2005-04-04 10:34:03 51°14.226 2°49.271 8.0426 3.24081 30.732646 10.174306
2005-04-04 10:34:08 51°14.228 2°49.263 8.0452 3.24081 30.731183 9.97205
2005-04-04 10:34:13 51°14.231 2°49.255 8.0465 3.241337 30.734518 10.140597
2005-04-04 10:34:18 51°14.233 2°49.248 8.0484 3.241337 30.734518 10.140597
2005-04-04 10:34:23 51°14.236 2°49.24 8.0518 3.241653 30.737835 10.005759
2005-04-04 10:34:28 51°14.239 2°49.232 8.0548 3.241863 30.738584 9.97205
2005-04-04 10:34:32 51°14.241 2°49.226 8.0562 3.242285 30.741543 10.174306
2005-04-04 10:34:37 51°14.244 2°49.219 8.0568 3.242495 30.743755 10.174306
2005-04-04 10:34:43 51°14.248 2°49.211 8.0558 3.242601 30.743397 10.106888
2005-04-04 10:34:48 51°14.251 2°49.204 8.0597 3.242601 30.743397 10.106888
2005-04-04 10:34:54 51°14.254 2°49.197 8.0596 3.242811 30.744146 10.039469
2005-04-04 10:34:58 51°14.257 2°49.193 8.0583 3.243232 30.747105 10.039469
2005-04-04 10:35:04 51°14.261 2°49.186 8.0602 3.243548 30.748227 9.904631
2005-04-04 10:35:08 51°14.263 2°49.182 8.0624 3.24397 30.749723 10.039469
2005-04-04 10:35:13 51°14.266 2°49.176 8.0612 3.244812 30.758567 9.904631
2005-04-04 10:35:18 51°14.269 2°49.171 8.0594 3.244812 30.758567 9.904631
2005-04-04 10:35:24 51°14.273 2°49.166 8.0594 3.245233 30.760793 9.938341
2005-04-04 10:35:28 51°14.275 2°49.161 8.0583 3.245444 30.762273 10.073178
2005-04-04 10:35:33 51°14.278 2°49.157 8.0594 3.24597 30.7678 10.106888
2005-04-04 10:35:38 51°14.281 2°49.152 8.0574 3.246181 30.768547 10.241725
2005-04-04 10:35:43 51°14.284 2°49.149 8.0581 3.246813 30.774448 10.208016
2005-04-04 10:35:48 51°14.287 2°49.145 8.0584 3.246813 30.774448 10.208016
2005-04-04 10:35:53 51°14.29 2°49.141 8.0576 3.247234 30.778869 10.073178
2005-04-04 10:35:58 51°14.292 2°49.137 8.0577 3.24755 30.782186 10.208016
2005-04-04 10:36:04 51°14.295 2°49.133 8.0583 3.247655 30.784756 10.140597
2005-04-04 10:36:08 51°14.298 2°49.13 8.0583 3.247971 30.788072 10.106888
2005-04-04 10:36:12 51°14.3 2°49.127 8.0597 3.248077 30.789178 10.275435
2005-04-04 10:36:18 51°14.303 2°49.123 8.0625 3.248077 30.789178 10.275435
2005-04-04 10:36:23 51°14.306 2°49.119 8.063 3.248077 30.789178 10.342853
2005-04-04 10:36:29 51°14.309 2°49.116 8.0665 3.248182 30.789551 10.174306
2005-04-04 10:36:33 51°14.311 2°49.113 8.0678 3.248182 30.791016 10.208016
2005-04-04 10:36:38 51°14.313 2°49.11 8.0706 3.248182 30.790283 10.174306
2005-04-04 10:36:44 51°14.316 2°49.106 8.072 3.248182 30.789551 10.275435
2005-04-04 10:36:48 51°14.318 2°49.104 8.0783 3.248182 30.789551 10.275435
2005-04-04 10:36:53 51°14.321 2°49.101 8.0779 3.248182 30.789551 10.241725
2005-04-04 10:36:58 51°14.323 2°49.098 8.0842 3.248392 30.789565 10.140597
2005-04-04 10:37:04 51°14.326 2°49.095 8.0842 3.248603 30.789579 10.073178
2005-04-04 10:37:08 51°14.327 2°49.093 8.0828 3.248708 30.78922 9.904631
2005-04-04 10:37:14 51°14.33 2°49.09 8.0837 3.24934 30.793655 10.005759
2005-04-04 10:37:18 51°14.332 2°49.088 8.0869 3.24934 30.793655 10.005759
2005-04-04 10:37:23 51°14.334 2°49.086 8.0878 3.24934 30.790726 9.97205
2005-04-04 10:37:28 51°14.337 2°49.083 8.0881 3.249761 30.792951 9.870922
2005-04-04 10:37:33 51°14.339 2°49.081 8.0925 3.250077 30.792606 9.769794
2005-04-04 10:37:38 51°14.341 2°49.079 8.0925 3.250709 30.798504 9.634956
2005-04-04 10:37:42 51°14.343 2°49.077 8.0947 3.250814 30.798145 9.702375
2005-04-04 10:37:48 51°14.345 2°49.074 8.0945 3.250814 30.798145 9.702375
2005-04-04 10:37:53 51°14.347 2°49.072 8.0975 3.251657 30.80552 9.736084
2005-04-04 10:37:58 51°14.349 2°49.07 8.0971 3.251762 30.805161 9.769794
2005-04-04 10:38:02 51°14.351 2°49.068 8.0964 3.252183 30.808848 9.668665
2005-04-04 10:38:08 51°14.353 2°49.066 8.0989 3.252394 30.808129 9.567537
2005-04-04 10:38:12 51°14.355 2°49.064 8.1013 3.25271 30.809247 9.567537
2005-04-04 10:38:18 51°14.357 2°49.062 8.1024 3.25271 30.809247 9.567537
2005-04-04 10:38:22 51°14.359 2°49.06 8.1044 3.253236 30.813307 9.769794
2005-04-04 10:38:28 51°14.361 2°49.058 8.1057 3.253658 30.816261 9.736084
2005-04-04 10:38:32 51°14.363 2°49.057 8.1092 3.254079 30.82068 9.803503
2005-04-04 10:38:38 51°14.365 2°49.055 8.1118 3.254184 30.821052 9.803503
2005-04-04 10:38:43 51°14.367 2°49.053 8.1112 3.254605 30.823274 9.736084
2005-04-04 10:38:48 51°14.368 2°49.052 8.1118 3.254605 30.823274 9.736084
2005-04-04 10:38:54 51°14.37 2°49.05 8.1176 3.254711 30.822914 9.769794
2005-04-04 10:38:58 51°14.372 2°49.048 8.1177 3.255132 30.825136 9.702375
2005-04-04 10:39:03 51°14.374 2°49.047 8.1202 3.255448 30.827717 9.904631
2005-04-04 10:39:08 51°14.376 2°49.045 8.1224 3.255869 30.829938 9.803503
2005-04-04 10:39:13 51°14.377 2°49.044 8.1226 3.25629 30.831427 9.736084
2005-04-04 10:39:18 51°14.379 2°49.042 8.1269 3.25629 30.831427 9.736084
2005-04-04 10:39:23 51°14.382 2°49.04 8.1283 3.251657 30.781378 9.736084
2005-04-04 10:39:28 51°14.384 2°49.036 8.1279 3.251762 30.780289 9.870922
2005-04-04 10:39:34 51°14.388 2°49.031 8.1286 3.252604 30.786928 9.837212
2005-04-04 10:39:38 51°14.391 2°49.026 8.1316 3.252499 30.785093 9.769794
2005-04-04 10:39:42 51°14.395 2°49.022 8.1318 3.253657 30.795774 9.769794
2005-04-04 10:39:48 51°14.403 2°49.014 8.1486 3.253657 30.795774 9.769794
2005-04-04 10:39:53 51°14.41 2°49.008 8.1262 3.253552 30.792477 9.702375
2005-04-04 10:39:58 51°14.417 2°49.004 8.097 3.2545 30.799487 9.870922
2005-04-04 10:40:04 51°14.427 2°48.999 8.0805 3.259239 30.846968 9.702375
2005-04-04 10:40:08 51°14.435 2°48.997 8.0647 3.259765 30.850291 9.837212
2005-04-04 10:40:12 51°14.442 2°48.996 8.0523 3.261345 30.863188 10.5114
2005-04-04 10:40:18 51°14.453 2°48.996 8.0489 3.261345 30.863188 10.5114
2005-04-04 10:40:23 51°14.464 2°48.997 8.0414 3.265347 30.899273 12.062033
2005-04-04 10:40:28 51°14.474 2°49.001 8.0283 3.269033 30.937912 11.859777
2005-04-04 10:40:33 51°14.484 2°49.006 8.0247 3.271982 30.985003 11.960905
2005-04-04 10:40:38 51°14.493 2°49.013 8.014 3.27293 31.009671 11.927195
2005-04-04 10:40:43 51°14.504 2°49.022 8.0188 3.27293 31.02441 12.196871
2005-04-04 10:40:48 51°14.513 2°49.033 8.0051 3.27293 31.02441 12.196871
2005-04-04 10:40:53 51°14.521 2°49.045 8.0013 3.272403 31.028467 12.365418
2005-04-04 10:40:57 51°14.528 2°49.055 7.9915 3.27135 31.029209 12.432836
2005-04-04 10:41:03 51°14.539 2°49.071 7.9923 3.270719 31.032903 12.432836
2005-04-04 10:41:08 51°14.548 2°49.084 7.9833 3.269771 31.029585 12.80364
2005-04-04 10:41:13 51°14.559 2°49.1 7.9809 3.269034 31.029959 12.76993
2005-04-04 10:41:18 51°14.569 2°49.115 7.9772 3.269034 31.029959 12.76993
2005-04-04 10:41:23 51°14.581 2°49.132 7.9809 3.268191 31.027748 12.972187
2005-04-04 10:41:29 51°14.594 2°49.15 7.9821 3.26756 31.027013 13.208153
2005-04-04 10:41:32 51°14.603 2°49.161 7.9788 3.267138 31.030711 13.241862
2005-04-04 10:41:38 51°14.616 2°49.179 7.9768 3.266401 31.028869 13.545247
2005-04-04 10:41:44 51°14.631 2°49.2 7.9863 3.26577 31.028134 13.477828
2005-04-04 10:41:48 51°14.642 2°49.216 7.9828 3.26577 31.028134 13.477828
2005-04-04 10:41:54 51°14.655 2°49.235 7.9814 3.264822 31.021116 13.747503
2005-04-04 10:41:58 51°14.665 2°49.251 7.9826 3.264927 31.026662 13.882341
2005-04-04 10:42:03 51°14.678 2°49.271 7.9875 3.264401 31.021859 13.882341
2005-04-04 10:42:08 51°14.689 2°49.291 7.9848 3.263453 31.012621 13.949759
2005-04-04 10:42:13 51°14.7 2°49.308 7.9843 3.262821 31.006708 13.713794
2005-04-04 10:42:18 51°14.712 2°49.328 7.986 3.262821 31.006708 13.713794
2005-04-04 10:42:22 51°14.721 2°49.344 7.9847 3.261978 30.995623 13.646375
2005-04-04 10:42:28 51°14.737 2°49.371 7.9792 3.261557 30.989712 13.309281
2005-04-04 10:42:33 51°14.75 2°49.392 7.9933 3.261241 30.986387 13.3767
2005-04-04 10:42:38 51°14.761 2°49.412 7.9948 3.260715 30.977891 13.208153
2005-04-04 10:42:43 51°14.775 2°49.435 8.0048 3.260399 30.974566 13.005896
2005-04-04 10:42:48 51°14.787 2°49.455 7.9979 3.260399 30.974566 13.005896
2005-04-04 10:42:53 51°14.802 2°49.479 8.0121 3.259872 30.969764 12.76993
2005-04-04 10:42:58 51°14.813 2°49.499 8.0014 3.259135 30.963482 12.837349
2005-04-04 10:43:03 51°14.827 2°49.523 8.0103 3.258292 30.954617 12.466546
2005-04-04 10:43:08 51°14.84 2°49.547 8.0087 3.258082 30.948712 12.365418
2005-04-04 10:43:13 51°14.852 2°49.57 8.0034 3.257134 30.935053 12.196871
2005-04-04 10:43:18 51°14.865 2°49.594 8.0133 3.257134 30.935053 12.196871
2005-04-04 10:43:23 51°14.876 2°49.618 8.0056 3.256818 30.928781 12.095742
2005-04-04 10:43:28 51°14.888 2°49.642 8.0049 3.256818 30.925097 11.893486
2005-04-04 10:43:33 51°14.9 2°49.666 8.0114 3.256818 30.923624 11.893486
2005-04-04 10:43:38 51°14.91 2°49.689 7.9993 3.256712 30.918833 11.590101
2005-04-04 10:43:42 51°14.92 2°49.708 7.9923 3.256397 30.914038 11.421554
2005-04-04 10:43:48 51°14.935 2°49.739 7.9978 3.256397 30.914038 11.421554
2005-04-04 10:43:54 51°14.948 2°49.766 8.0195 3.25587 30.909238 11.556392
2005-04-04 10:43:58 51°14.959 2°49.789 8.0098 3.255449 30.905545 11.488973
2005-04-04 10:44:04 51°14.971 2°49.815 7.999 3.255554 30.90518 11.556392
2005-04-04 10:44:08 51°14.982 2°49.838 7.9953 3.255449 30.901128 11.488973
2005-04-04 10:44:13 51°14.992 2°49.86 8.0104 3.254396 30.893 11.455264
2005-04-04 10:44:18 51°15.003 2°49.885 8.0081 3.254396 30.893 11.455264
2005-04-04 10:44:22 51°15.012 2°49.905 8.0116 3.252816 30.88007 11.286717
2005-04-04 10:44:28 51°15.025 2°49.939 8.01 3.252079 30.871583 11.219298
2005-04-04 10:44:33 51°15.034 2°49.966 8.0195 3.251342 30.864568 11.017042
2005-04-04 10:44:38 51°15.042 2°49.991 8.0286 3.25092 30.863816 11.017042
2005-04-04 10:44:43 51°15.052 2°50.021 8.0475 3.250815 30.861238 10.983332
2005-04-04 10:44:48 51°15.06 2°50.049 8.0409 3.250815 30.861238 10.983332
2005-04-04 10:44:54 51°15.069 2°50.08 8.0397 3.250815 30.857562 10.983332
2005-04-04 10:44:58 51°15.075 2°50.103 8.045 3.251236 30.858315 11.017042
2005-04-04 10:45:04 51°15.084 2°50.136 8.0444 3.251763 30.863115 11.050751
2005-04-04 10:45:08 51°15.09 2°50.159 8.0575 3.252079 30.862761 11.11817
2005-04-04 10:45:12 51°15.097 2°50.184 8.0438 3.2525 30.859105 11.185589
2005-04-04 10:45:18 51°15.106 2°50.219 8.0555 3.2525 30.859105 11.185589
2005-04-04 10:45:23 51°15.114 2°50.246 8.079 3.252921 30.857655 11.286717
2005-04-04 10:45:28 51°15.122 2°50.274 8.2099 3.252816 30.853611 11.185589
2005-04-04 10:45:33 51°15.129 2°50.3 8.1816 3.252816 30.850674 11.185589
2005-04-04 10:45:38 51°15.137 2°50.328 8.0973 3.252394 30.844047 11.151879
2005-04-04 10:45:43 51°15.146 2°50.359 8.0713 3.251868 30.837049 11.08446
2005-04-04 10:45:48 51°15.155 2°50.387 8.0768 3.251868 30.837049 11.08446
2005-04-04 10:45:53 51°15.163 2°50.415 8.0914 3.251341 30.828585 10.983332
2005-04-04 10:45:58 51°15.171 2°50.444 8.0936 3.251552 30.822731 10.882204
2005-04-04 10:46:02 51°15.177 2°50.463 8.0957 3.253025 30.786958 10.781076
2005-04-04 10:46:08 51°15.187 2°50.497 8.1187 3.255026 30.789658 10.612529
2005-04-04 10:46:13 51°15.195 2°50.529 8.1275 3.254921 30.81268 10.443982
2005-04-04 10:46:18 51°15.202 2°50.554 8.1415 3.254921 30.81268 10.443982
2005-04-04 10:46:23 51°15.211 2°50.586 8.1432 3.254184 30.825447 10.410272
2005-04-04 10:46:28 51°15.219 2°50.614 8.1364 3.253868 30.823597 10.241725
2005-04-04 10:46:33 51°15.227 2°50.64 8.1486 3.254395 30.826924 10.309144
2005-04-04 10:46:38 51°15.235 2°50.668 8.1153 3.254395 30.822529 10.073178
2005-04-04 10:46:44 51°15.245 2°50.702 8.0993 3.254395 30.813013 10.073178
2005-04-04 10:46:48 51°15.252 2°50.727 8.0986 3.254395 30.813013 10.073178
2005-04-04 10:46:53 51°15.261 2°50.755 8.1044 3.254605 30.803516 9.97205
2005-04-04 10:46:58 51°15.268 2°50.781 8.087 3.254394 30.790344 9.97205
2005-04-04 10:47:02 51°15.275 2°50.807 8.123 3.25292 30.773435 9.702375
2005-04-04 10:47:08 51°15.285 2°50.84 8.094 3.250919 30.753931 9.769794
2005-04-04 10:47:13 51°15.293 2°50.869 8.1296 3.248602 30.742791 9.904631
2005-04-04 10:47:18 51°15.3 2°50.894 8.0683 3.248602 30.742791 9.904631
2005-04-04 10:47:22 51°15.306 2°50.917 8.0817 3.246391 30.731289 9.702375
2005-04-04 10:47:28 51°15.317 2°50.954 8.0449 3.244812 30.720567 9.736084
2005-04-04 10:47:34 51°15.326 2°50.985 8.0586 3.244074 30.714298 9.803503
2005-04-04 10:47:38 51°15.333 2°51.011 8.0385 3.243758 30.705149 9.803503
2005-04-04 10:47:43 51°15.34 2°51.036 8.0396 3.243337 30.699275 9.668665
2005-04-04 10:47:48 51°15.349 2°51.067 8.0168 3.243337 30.699275 9.668665
2005-04-04 10:47:52 51°15.356 2°51.089 8.0081 3.242705 30.697756 9.634956
2005-04-04 10:47:58 51°15.365 2°51.12 8.0017 3.241547 30.695822 9.837212
2005-04-04 10:48:04 51°15.375 2°51.154 7.9981 3.239968 30.695306 9.668665
2005-04-04 10:48:08 51°15.382 2°51.18 8.013 3.238809 30.691912 9.769794
2005-04-04 10:48:13 51°15.39 2°51.208 7.9978 3.237019 30.681154 9.634956
2005-04-04 10:48:18 51°15.398 2°51.237 7.986 3.237019 30.681154 9.634956
2005-04-04 10:48:22 51°15.403 2°51.256 7.997 3.235756 30.67884 9.601247
2005-04-04 10:48:28 51°15.414 2°51.293 7.9863 3.234597 30.678363 9.533828
2005-04-04 10:48:34 51°15.423 2°51.323 7.9838 3.233018 30.67273 9.466409
2005-04-04 10:48:38 51°15.43 2°51.346 7.9807 3.23207 30.667887 9.365281
2005-04-04 10:48:43 51°15.439 2°51.377 7.9856 3.231754 30.663838 9.264153
2005-04-04 10:48:48 51°15.446 2°51.402 7.9814 3.231754 30.663838 9.264153
2005-04-04 10:48:52 51°15.453 2°51.428 7.9867 3.231228 30.662689 9.230443
2005-04-04 10:48:58 51°15.462 2°51.459 7.9878 3.230807 30.661186 9.196734
2005-04-04 10:49:03 51°15.471 2°51.49 7.9886 3.230385 30.658951 9.230443
2005-04-04 10:49:08 51°15.478 2°51.515 7.9768 3.229859 30.657071 9.061896
2005-04-04 10:49:13 51°15.487 2°51.546 7.9815 3.229227 30.652623 8.960768
2005-04-04 10:49:18 51°15.495 2°51.572 7.9777 3.229227 30.652623 8.960768
2005-04-04 10:49:22 51°15.501 2°51.594 7.9551 3.228806 30.650388 8.893349
2005-04-04 10:49:28 51°15.512 2°51.63 7.9658 3.228701 30.649281 8.927059
2005-04-04 10:49:32 51°15.518 2°51.653 7.9793 3.228279 30.642662 8.927059
2005-04-04 10:49:38 51°15.528 2°51.687 8.4326 3.228174 30.643016 8.82593
2005-04-04 10:49:44 51°15.536 2°51.718 8.6803 3.227437 30.638191 8.82593